<?xml version="1.0" encoding="UTF-8" standalone="no" ?>
<gpx xmlns="http://www.topografix.com/GPX/1/1" xmlns:xsi="http://www.w3.org/2001/XMLSchema-instance" xsi:schemaLocation="http://www.topografix.com/GPX/1/1 http://www.topografix.com/GPX/1/1/gpx.xsd" version="1.1" creator="VisuGPX - https://www.visugpx.com">
  <metadata>
    <name>Mondeville</name>
    <desc><![CDATA[Départ à la gare SNCF de la Ferté-Alais, arrivée à la gare SNCF de Ballancourt. Nous passerons par le bois de Baulne, Mondeville,  le Grand Saussay, la chapelle St Blaise, le Petit Saussay. Daniel BAIJOT]]></desc>
  </metadata>
  <trk>
    <name><![CDATA[Tracé actuel: 05 MARS 2014 09:47]]></name>
    <trkseg>
      <trkpt lat="48.48453" lon="2.35183">
        <ele>72.24</ele>
        <time>2014-03-05T08:47:17Z</time>
      </trkpt>
      <trkpt lat="48.48454" lon="2.35178">
        <ele>71.27</ele>
        <time>2014-03-05T08:47:32Z</time>
      </trkpt>
      <trkpt lat="48.48456" lon="2.35174">
        <ele>70.31</ele>
        <time>2014-03-05T08:47:43Z</time>
      </trkpt>
      <trkpt lat="48.48453" lon="2.35189">
        <ele>69.83</ele>
        <time>2014-03-05T08:47:56Z</time>
      </trkpt>
      <trkpt lat="48.48447" lon="2.35193">
        <ele>70.79</ele>
        <time>2014-03-05T08:48:01Z</time>
      </trkpt>
      <trkpt lat="48.48438" lon="2.3519">
        <ele>72.72</ele>
        <time>2014-03-05T08:48:08Z</time>
      </trkpt>
      <trkpt lat="48.48415" lon="2.35178">
        <ele>73.2</ele>
        <time>2014-03-05T08:48:28Z</time>
      </trkpt>
      <trkpt lat="48.484" lon="2.35166">
        <ele>72.24</ele>
        <time>2014-03-05T08:48:46Z</time>
      </trkpt>
      <trkpt lat="48.48388" lon="2.35156">
        <ele>71.76</ele>
        <time>2014-03-05T08:49:01Z</time>
      </trkpt>
      <trkpt lat="48.48364" lon="2.35146">
        <ele>71.27</ele>
        <time>2014-03-05T08:49:21Z</time>
      </trkpt>
      <trkpt lat="48.48341" lon="2.35137">
        <ele>72.24</ele>
        <time>2014-03-05T08:49:38Z</time>
      </trkpt>
      <trkpt lat="48.48318" lon="2.35129">
        <ele>73.2</ele>
        <time>2014-03-05T08:49:55Z</time>
      </trkpt>
      <trkpt lat="48.48292" lon="2.35122">
        <ele>74.64</ele>
        <time>2014-03-05T08:50:15Z</time>
      </trkpt>
      <trkpt lat="48.48265" lon="2.35112">
        <ele>76.56</ele>
        <time>2014-03-05T08:50:35Z</time>
      </trkpt>
      <trkpt lat="48.48252" lon="2.35105">
        <ele>75.6</ele>
        <time>2014-03-05T08:50:48Z</time>
      </trkpt>
      <trkpt lat="48.48253" lon="2.35106">
        <ele>74.16</ele>
        <time>2014-03-05T08:51:19Z</time>
      </trkpt>
      <trkpt lat="48.4825" lon="2.351">
        <ele>73.2</ele>
        <time>2014-03-05T08:51:31Z</time>
      </trkpt>
      <trkpt lat="48.48248" lon="2.35133">
        <ele>72.24</ele>
        <time>2014-03-05T08:51:48Z</time>
      </trkpt>
      <trkpt lat="48.48246" lon="2.35169">
        <ele>70.79</ele>
        <time>2014-03-05T08:52:06Z</time>
      </trkpt>
      <trkpt lat="48.48245" lon="2.35206">
        <ele>71.27</ele>
        <time>2014-03-05T08:52:24Z</time>
      </trkpt>
      <trkpt lat="48.48242" lon="2.35259">
        <ele>71.27</ele>
        <time>2014-03-05T08:52:49Z</time>
      </trkpt>
      <trkpt lat="48.48244" lon="2.35302">
        <ele>73.68</ele>
        <time>2014-03-05T08:53:12Z</time>
      </trkpt>
      <trkpt lat="48.48247" lon="2.35302">
        <ele>74.64</ele>
        <time>2014-03-05T08:53:15Z</time>
      </trkpt>
      <trkpt lat="48.48273" lon="2.35268">
        <ele>77.52</ele>
        <time>2014-03-05T08:53:40Z</time>
      </trkpt>
      <trkpt lat="48.48288" lon="2.35259">
        <ele>78.97</ele>
        <time>2014-03-05T08:53:58Z</time>
      </trkpt>
      <trkpt lat="48.48301" lon="2.35266">
        <ele>81.37</ele>
        <time>2014-03-05T08:54:14Z</time>
      </trkpt>
      <trkpt lat="48.48317" lon="2.35278">
        <ele>86.18</ele>
        <time>2014-03-05T08:54:33Z</time>
      </trkpt>
      <trkpt lat="48.48333" lon="2.3529">
        <ele>90.98</ele>
        <time>2014-03-05T08:54:52Z</time>
      </trkpt>
      <trkpt lat="48.48344" lon="2.35298">
        <ele>90.02</ele>
        <time>2014-03-05T08:55:09Z</time>
      </trkpt>
      <trkpt lat="48.48377" lon="2.35325">
        <ele>83.29</ele>
        <time>2014-03-05T08:55:30Z</time>
      </trkpt>
      <trkpt lat="48.48393" lon="2.35356">
        <ele>81.85</ele>
        <time>2014-03-05T08:55:47Z</time>
      </trkpt>
      <trkpt lat="48.4839" lon="2.35376">
        <ele>83.77</ele>
        <time>2014-03-05T08:56:07Z</time>
      </trkpt>
      <trkpt lat="48.48388" lon="2.35398">
        <ele>86.18</ele>
        <time>2014-03-05T08:56:26Z</time>
      </trkpt>
      <trkpt lat="48.48392" lon="2.35416">
        <ele>88.1</ele>
        <time>2014-03-05T08:56:50Z</time>
      </trkpt>
      <trkpt lat="48.484" lon="2.3544">
        <ele>90.5</ele>
        <time>2014-03-05T08:57:10Z</time>
      </trkpt>
      <trkpt lat="48.48408" lon="2.3547">
        <ele>92.42</ele>
        <time>2014-03-05T08:57:28Z</time>
      </trkpt>
      <trkpt lat="48.48416" lon="2.35501">
        <ele>92.42</ele>
        <time>2014-03-05T08:57:51Z</time>
      </trkpt>
      <trkpt lat="48.48422" lon="2.35542">
        <ele>102.52</ele>
        <time>2014-03-05T08:58:17Z</time>
      </trkpt>
      <trkpt lat="48.48429" lon="2.35562">
        <ele>110.21</ele>
        <time>2014-03-05T08:58:40Z</time>
      </trkpt>
      <trkpt lat="48.48435" lon="2.35584">
        <ele>112.61</ele>
        <time>2014-03-05T08:59:01Z</time>
      </trkpt>
      <trkpt lat="48.48438" lon="2.3561">
        <ele>115.01</ele>
        <time>2014-03-05T08:59:21Z</time>
      </trkpt>
      <trkpt lat="48.48449" lon="2.35633">
        <ele>117.9</ele>
        <time>2014-03-05T08:59:37Z</time>
      </trkpt>
      <trkpt lat="48.48456" lon="2.35644">
        <ele>124.63</ele>
        <time>2014-03-05T08:59:48Z</time>
      </trkpt>
      <trkpt lat="48.48459" lon="2.35647">
        <ele>126.07</ele>
        <time>2014-03-05T08:59:51Z</time>
      </trkpt>
      <trkpt lat="48.48469" lon="2.35654">
        <ele>127.99</ele>
        <time>2014-03-05T09:00:03Z</time>
      </trkpt>
      <trkpt lat="48.48476" lon="2.35652">
        <ele>126.07</ele>
        <time>2014-03-05T09:00:11Z</time>
      </trkpt>
      <trkpt lat="48.48489" lon="2.35651">
        <ele>123.19</ele>
        <time>2014-03-05T09:00:27Z</time>
      </trkpt>
      <trkpt lat="48.48504" lon="2.35652">
        <ele>120.78</ele>
        <time>2014-03-05T09:00:41Z</time>
      </trkpt>
      <trkpt lat="48.48522" lon="2.35653">
        <ele>121.26</ele>
        <time>2014-03-05T09:00:57Z</time>
      </trkpt>
      <trkpt lat="48.48533" lon="2.3566">
        <ele>119.34</ele>
        <time>2014-03-05T09:01:10Z</time>
      </trkpt>
      <trkpt lat="48.48544" lon="2.35673">
        <ele>119.34</ele>
        <time>2014-03-05T09:01:20Z</time>
      </trkpt>
      <trkpt lat="48.48555" lon="2.35687">
        <ele>119.82</ele>
        <time>2014-03-05T09:01:34Z</time>
      </trkpt>
      <trkpt lat="48.48563" lon="2.35709">
        <ele>119.82</ele>
        <time>2014-03-05T09:01:49Z</time>
      </trkpt>
      <trkpt lat="48.48564" lon="2.35717">
        <ele>119.82</ele>
        <time>2014-03-05T09:01:53Z</time>
      </trkpt>
      <trkpt lat="48.48575" lon="2.35744">
        <ele>120.78</ele>
        <time>2014-03-05T09:02:12Z</time>
      </trkpt>
      <trkpt lat="48.48582" lon="2.35763">
        <ele>121.74</ele>
        <time>2014-03-05T09:02:32Z</time>
      </trkpt>
      <trkpt lat="48.48594" lon="2.35784">
        <ele>123.19</ele>
        <time>2014-03-05T09:02:52Z</time>
      </trkpt>
      <trkpt lat="48.48606" lon="2.35808">
        <ele>124.15</ele>
        <time>2014-03-05T09:03:07Z</time>
      </trkpt>
      <trkpt lat="48.48624" lon="2.35816">
        <ele>127.03</ele>
        <time>2014-03-05T09:03:25Z</time>
      </trkpt>
      <trkpt lat="48.4863" lon="2.35817">
        <ele>128.47</ele>
        <time>2014-03-05T09:03:32Z</time>
      </trkpt>
      <trkpt lat="48.48653" lon="2.35842">
        <ele>130.88</ele>
        <time>2014-03-05T09:03:54Z</time>
      </trkpt>
      <trkpt lat="48.48659" lon="2.35845">
        <ele>131.84</ele>
        <time>2014-03-05T09:04:03Z</time>
      </trkpt>
      <trkpt lat="48.48671" lon="2.35843">
        <ele>134.24</ele>
        <time>2014-03-05T09:04:13Z</time>
      </trkpt>
      <trkpt lat="48.48693" lon="2.35837">
        <ele>137.61</ele>
        <time>2014-03-05T09:04:32Z</time>
      </trkpt>
      <trkpt lat="48.487" lon="2.35821">
        <ele>136.64</ele>
        <time>2014-03-05T09:04:51Z</time>
      </trkpt>
      <trkpt lat="48.48702" lon="2.35816">
        <ele>135.68</ele>
        <time>2014-03-05T09:05:20Z</time>
      </trkpt>
      <trkpt lat="48.48709" lon="2.35819">
        <ele>134.24</ele>
        <time>2014-03-05T09:05:39Z</time>
      </trkpt>
      <trkpt lat="48.48712" lon="2.35817">
        <ele>133.76</ele>
        <time>2014-03-05T09:05:42Z</time>
      </trkpt>
      <trkpt lat="48.48751" lon="2.35835">
        <ele>129.92</ele>
        <time>2014-03-05T09:06:00Z</time>
      </trkpt>
      <trkpt lat="48.4877" lon="2.35862">
        <ele>128.95</ele>
        <time>2014-03-05T09:06:17Z</time>
      </trkpt>
      <trkpt lat="48.48788" lon="2.35896">
        <ele>127.03</ele>
        <time>2014-03-05T09:06:38Z</time>
      </trkpt>
      <trkpt lat="48.48812" lon="2.35922">
        <ele>125.11</ele>
        <time>2014-03-05T09:07:01Z</time>
      </trkpt>
      <trkpt lat="48.48826" lon="2.3597">
        <ele>122.22</ele>
        <time>2014-03-05T09:07:23Z</time>
      </trkpt>
      <trkpt lat="48.48835" lon="2.35999">
        <ele>119.82</ele>
        <time>2014-03-05T09:07:39Z</time>
      </trkpt>
      <trkpt lat="48.48844" lon="2.36019">
        <ele>119.82</ele>
        <time>2014-03-05T09:07:53Z</time>
      </trkpt>
      <trkpt lat="48.48845" lon="2.36022">
        <ele>120.3</ele>
        <time>2014-03-05T09:07:54Z</time>
      </trkpt>
      <trkpt lat="48.48846" lon="2.36039">
        <ele>120.78</ele>
        <time>2014-03-05T09:08:03Z</time>
      </trkpt>
      <trkpt lat="48.48852" lon="2.36047">
        <ele>119.82</ele>
        <time>2014-03-05T09:08:16Z</time>
      </trkpt>
      <trkpt lat="48.48861" lon="2.36068">
        <ele>119.34</ele>
        <time>2014-03-05T09:08:31Z</time>
      </trkpt>
      <trkpt lat="48.48868" lon="2.36078">
        <ele>119.82</ele>
        <time>2014-03-05T09:08:44Z</time>
      </trkpt>
      <trkpt lat="48.48873" lon="2.36099">
        <ele>118.38</ele>
        <time>2014-03-05T09:08:57Z</time>
      </trkpt>
      <trkpt lat="48.48873" lon="2.36127">
        <ele>116.94</ele>
        <time>2014-03-05T09:09:12Z</time>
      </trkpt>
      <trkpt lat="48.48867" lon="2.36151">
        <ele>115.01</ele>
        <time>2014-03-05T09:09:28Z</time>
      </trkpt>
      <trkpt lat="48.48873" lon="2.36182">
        <ele>110.21</ele>
        <time>2014-03-05T09:09:46Z</time>
      </trkpt>
      <trkpt lat="48.48878" lon="2.36205">
        <ele>108.77</ele>
        <time>2014-03-05T09:09:59Z</time>
      </trkpt>
      <trkpt lat="48.48882" lon="2.36217">
        <ele>111.17</ele>
        <time>2014-03-05T09:10:15Z</time>
      </trkpt>
      <trkpt lat="48.48885" lon="2.36219">
        <ele>112.13</ele>
        <time>2014-03-05T09:10:30Z</time>
      </trkpt>
      <trkpt lat="48.48885" lon="2.36225">
        <ele>113.57</ele>
        <time>2014-03-05T09:11:01Z</time>
      </trkpt>
      <trkpt lat="48.48883" lon="2.36229">
        <ele>115.5</ele>
        <time>2014-03-05T09:11:16Z</time>
      </trkpt>
      <trkpt lat="48.48867" lon="2.36234">
        <ele>121.26</ele>
        <time>2014-03-05T09:11:34Z</time>
      </trkpt>
      <trkpt lat="48.48866" lon="2.36235">
        <ele>120.78</ele>
        <time>2014-03-05T09:11:35Z</time>
      </trkpt>
      <trkpt lat="48.48862" lon="2.36238">
        <ele>120.78</ele>
        <time>2014-03-05T09:11:39Z</time>
      </trkpt>
      <trkpt lat="48.48845" lon="2.36251">
        <ele>125.11</ele>
        <time>2014-03-05T09:11:56Z</time>
      </trkpt>
      <trkpt lat="48.48844" lon="2.36251">
        <ele>126.07</ele>
        <time>2014-03-05T09:12:08Z</time>
      </trkpt>
      <trkpt lat="48.48831" lon="2.36274">
        <ele>127.03</ele>
        <time>2014-03-05T09:12:24Z</time>
      </trkpt>
      <trkpt lat="48.4881" lon="2.36299">
        <ele>128.95</ele>
        <time>2014-03-05T09:12:44Z</time>
      </trkpt>
      <trkpt lat="48.48789" lon="2.36318">
        <ele>130.88</ele>
        <time>2014-03-05T09:13:01Z</time>
      </trkpt>
      <trkpt lat="48.48775" lon="2.36341">
        <ele>130.88</ele>
        <time>2014-03-05T09:13:15Z</time>
      </trkpt>
      <trkpt lat="48.48761" lon="2.36371">
        <ele>129.92</ele>
        <time>2014-03-05T09:13:31Z</time>
      </trkpt>
      <trkpt lat="48.48754" lon="2.36389">
        <ele>128.47</ele>
        <time>2014-03-05T09:13:41Z</time>
      </trkpt>
      <trkpt lat="48.48751" lon="2.36395">
        <ele>128.47</ele>
        <time>2014-03-05T09:13:45Z</time>
      </trkpt>
      <trkpt lat="48.48736" lon="2.3643">
        <ele>128.95</ele>
        <time>2014-03-05T09:14:03Z</time>
      </trkpt>
      <trkpt lat="48.48721" lon="2.36462">
        <ele>129.92</ele>
        <time>2014-03-05T09:14:20Z</time>
      </trkpt>
      <trkpt lat="48.48712" lon="2.36493">
        <ele>130.88</ele>
        <time>2014-03-05T09:14:36Z</time>
      </trkpt>
      <trkpt lat="48.48703" lon="2.36527">
        <ele>129.43</ele>
        <time>2014-03-05T09:14:54Z</time>
      </trkpt>
      <trkpt lat="48.487" lon="2.36564">
        <ele>128.95</ele>
        <time>2014-03-05T09:15:10Z</time>
      </trkpt>
      <trkpt lat="48.48701" lon="2.36606">
        <ele>128.95</ele>
        <time>2014-03-05T09:15:28Z</time>
      </trkpt>
      <trkpt lat="48.48706" lon="2.3664">
        <ele>129.92</ele>
        <time>2014-03-05T09:15:45Z</time>
      </trkpt>
      <trkpt lat="48.4871" lon="2.36675">
        <ele>128.95</ele>
        <time>2014-03-05T09:16:01Z</time>
      </trkpt>
      <trkpt lat="48.48709" lon="2.36713">
        <ele>127.99</ele>
        <time>2014-03-05T09:16:19Z</time>
      </trkpt>
      <trkpt lat="48.48702" lon="2.36748">
        <ele>126.55</ele>
        <time>2014-03-05T09:16:36Z</time>
      </trkpt>
      <trkpt lat="48.48696" lon="2.36782">
        <ele>126.55</ele>
        <time>2014-03-05T09:16:53Z</time>
      </trkpt>
      <trkpt lat="48.4869" lon="2.36816">
        <ele>125.11</ele>
        <time>2014-03-05T09:17:09Z</time>
      </trkpt>
      <trkpt lat="48.48685" lon="2.36846">
        <ele>125.59</ele>
        <time>2014-03-05T09:17:23Z</time>
      </trkpt>
      <trkpt lat="48.4868" lon="2.36876">
        <ele>125.11</ele>
        <time>2014-03-05T09:17:38Z</time>
      </trkpt>
      <trkpt lat="48.4868" lon="2.36875">
        <ele>124.63</ele>
        <time>2014-03-05T09:17:46Z</time>
      </trkpt>
      <trkpt lat="48.48673" lon="2.36909">
        <ele>124.63</ele>
        <time>2014-03-05T09:18:03Z</time>
      </trkpt>
      <trkpt lat="48.48668" lon="2.36941">
        <ele>125.11</ele>
        <time>2014-03-05T09:18:17Z</time>
      </trkpt>
      <trkpt lat="48.48661" lon="2.36977">
        <ele>124.15</ele>
        <time>2014-03-05T09:18:34Z</time>
      </trkpt>
      <trkpt lat="48.48656" lon="2.37014">
        <ele>123.19</ele>
        <time>2014-03-05T09:18:52Z</time>
      </trkpt>
      <trkpt lat="48.4865" lon="2.37049">
        <ele>123.19</ele>
        <time>2014-03-05T09:19:11Z</time>
      </trkpt>
      <trkpt lat="48.48643" lon="2.37086">
        <ele>124.63</ele>
        <time>2014-03-05T09:19:30Z</time>
      </trkpt>
      <trkpt lat="48.48638" lon="2.3712">
        <ele>125.11</ele>
        <time>2014-03-05T09:19:48Z</time>
      </trkpt>
      <trkpt lat="48.48632" lon="2.37156">
        <ele>126.07</ele>
        <time>2014-03-05T09:20:06Z</time>
      </trkpt>
      <trkpt lat="48.48632" lon="2.37172">
        <ele>126.07</ele>
        <time>2014-03-05T09:20:15Z</time>
      </trkpt>
      <trkpt lat="48.48635" lon="2.37179">
        <ele>127.03</ele>
        <time>2014-03-05T09:20:34Z</time>
      </trkpt>
      <trkpt lat="48.48635" lon="2.3718">
        <ele>127.03</ele>
        <time>2014-03-05T09:20:35Z</time>
      </trkpt>
      <trkpt lat="48.48643" lon="2.3719">
        <ele>126.07</ele>
        <time>2014-03-05T09:20:42Z</time>
      </trkpt>
      <trkpt lat="48.48665" lon="2.37207">
        <ele>120.78</ele>
        <time>2014-03-05T09:21:01Z</time>
      </trkpt>
      <trkpt lat="48.48679" lon="2.3722">
        <ele>120.3</ele>
        <time>2014-03-05T09:21:17Z</time>
      </trkpt>
      <trkpt lat="48.4871" lon="2.37228">
        <ele>119.82</ele>
        <time>2014-03-05T09:21:37Z</time>
      </trkpt>
      <trkpt lat="48.48728" lon="2.37229">
        <ele>119.82</ele>
        <time>2014-03-05T09:21:49Z</time>
      </trkpt>
      <trkpt lat="48.48741" lon="2.37226">
        <ele>121.26</ele>
        <time>2014-03-05T09:22:00Z</time>
      </trkpt>
      <trkpt lat="48.48749" lon="2.3725">
        <ele>123.67</ele>
        <time>2014-03-05T09:22:15Z</time>
      </trkpt>
      <trkpt lat="48.4875" lon="2.37256">
        <ele>123.67</ele>
        <time>2014-03-05T09:22:18Z</time>
      </trkpt>
      <trkpt lat="48.48752" lon="2.3727">
        <ele>123.67</ele>
        <time>2014-03-05T09:22:25Z</time>
      </trkpt>
      <trkpt lat="48.48752" lon="2.373">
        <ele>122.71</ele>
        <time>2014-03-05T09:22:40Z</time>
      </trkpt>
      <trkpt lat="48.48752" lon="2.37303">
        <ele>122.71</ele>
        <time>2014-03-05T09:22:42Z</time>
      </trkpt>
      <trkpt lat="48.48754" lon="2.37337">
        <ele>122.71</ele>
        <time>2014-03-05T09:22:58Z</time>
      </trkpt>
      <trkpt lat="48.48758" lon="2.37367">
        <ele>120.3</ele>
        <time>2014-03-05T09:23:13Z</time>
      </trkpt>
      <trkpt lat="48.48759" lon="2.37379">
        <ele>119.82</ele>
        <time>2014-03-05T09:23:19Z</time>
      </trkpt>
      <trkpt lat="48.48761" lon="2.37393">
        <ele>121.26</ele>
        <time>2014-03-05T09:23:26Z</time>
      </trkpt>
      <trkpt lat="48.48766" lon="2.37416">
        <ele>127.03</ele>
        <time>2014-03-05T09:23:40Z</time>
      </trkpt>
      <trkpt lat="48.48767" lon="2.37426">
        <ele>128.95</ele>
        <time>2014-03-05T09:23:44Z</time>
      </trkpt>
      <trkpt lat="48.48765" lon="2.37449">
        <ele>130.4</ele>
        <time>2014-03-05T09:23:56Z</time>
      </trkpt>
      <trkpt lat="48.48766" lon="2.37474">
        <ele>129.43</ele>
        <time>2014-03-05T09:24:07Z</time>
      </trkpt>
      <trkpt lat="48.48766" lon="2.37483">
        <ele>129.43</ele>
        <time>2014-03-05T09:24:12Z</time>
      </trkpt>
      <trkpt lat="48.48765" lon="2.37494">
        <ele>127.51</ele>
        <time>2014-03-05T09:24:19Z</time>
      </trkpt>
      <trkpt lat="48.48767" lon="2.37504">
        <ele>126.55</ele>
        <time>2014-03-05T09:24:23Z</time>
      </trkpt>
      <trkpt lat="48.48765" lon="2.37548">
        <ele>121.74</ele>
        <time>2014-03-05T09:24:40Z</time>
      </trkpt>
      <trkpt lat="48.48764" lon="2.37555">
        <ele>120.78</ele>
        <time>2014-03-05T09:24:45Z</time>
      </trkpt>
      <trkpt lat="48.48762" lon="2.37565">
        <ele>119.82</ele>
        <time>2014-03-05T09:24:49Z</time>
      </trkpt>
      <trkpt lat="48.48759" lon="2.3759">
        <ele>119.82</ele>
        <time>2014-03-05T09:25:02Z</time>
      </trkpt>
      <trkpt lat="48.48763" lon="2.37615">
        <ele>118.86</ele>
        <time>2014-03-05T09:25:14Z</time>
      </trkpt>
      <trkpt lat="48.4876" lon="2.37649">
        <ele>118.38</ele>
        <time>2014-03-05T09:25:29Z</time>
      </trkpt>
      <trkpt lat="48.48755" lon="2.37682">
        <ele>119.82</ele>
        <time>2014-03-05T09:25:46Z</time>
      </trkpt>
      <trkpt lat="48.48749" lon="2.37713">
        <ele>124.15</ele>
        <time>2014-03-05T09:26:02Z</time>
      </trkpt>
      <trkpt lat="48.48745" lon="2.37745">
        <ele>127.99</ele>
        <time>2014-03-05T09:26:18Z</time>
      </trkpt>
      <trkpt lat="48.48735" lon="2.37775">
        <ele>130.88</ele>
        <time>2014-03-05T09:26:34Z</time>
      </trkpt>
      <trkpt lat="48.48729" lon="2.378">
        <ele>133.28</ele>
        <time>2014-03-05T09:26:46Z</time>
      </trkpt>
      <trkpt lat="48.48728" lon="2.37805">
        <ele>133.76</ele>
        <time>2014-03-05T09:26:49Z</time>
      </trkpt>
      <trkpt lat="48.48722" lon="2.37826">
        <ele>133.28</ele>
        <time>2014-03-05T09:27:02Z</time>
      </trkpt>
      <trkpt lat="48.48722" lon="2.37827">
        <ele>133.28</ele>
        <time>2014-03-05T09:27:03Z</time>
      </trkpt>
      <trkpt lat="48.48715" lon="2.37842">
        <ele>133.28</ele>
        <time>2014-03-05T09:27:09Z</time>
      </trkpt>
      <trkpt lat="48.48712" lon="2.37858">
        <ele>132.8</ele>
        <time>2014-03-05T09:27:20Z</time>
      </trkpt>
      <trkpt lat="48.48708" lon="2.37868">
        <ele>134.24</ele>
        <time>2014-03-05T09:27:26Z</time>
      </trkpt>
      <trkpt lat="48.48701" lon="2.37879">
        <ele>133.76</ele>
        <time>2014-03-05T09:27:31Z</time>
      </trkpt>
      <trkpt lat="48.48696" lon="2.37901">
        <ele>135.68</ele>
        <time>2014-03-05T09:27:43Z</time>
      </trkpt>
      <trkpt lat="48.48694" lon="2.37921">
        <ele>138.09</ele>
        <time>2014-03-05T09:27:53Z</time>
      </trkpt>
      <trkpt lat="48.48691" lon="2.3793">
        <ele>139.05</ele>
        <time>2014-03-05T09:27:57Z</time>
      </trkpt>
      <trkpt lat="48.48687" lon="2.37941">
        <ele>140.49</ele>
        <time>2014-03-05T09:28:05Z</time>
      </trkpt>
      <trkpt lat="48.4868" lon="2.37956">
        <ele>143.37</ele>
        <time>2014-03-05T09:28:19Z</time>
      </trkpt>
      <trkpt lat="48.48677" lon="2.37964">
        <ele>143.85</ele>
        <time>2014-03-05T09:28:23Z</time>
      </trkpt>
      <trkpt lat="48.48671" lon="2.37984">
        <ele>146.74</ele>
        <time>2014-03-05T09:28:35Z</time>
      </trkpt>
      <trkpt lat="48.4867" lon="2.37996">
        <ele>151.06</ele>
        <time>2014-03-05T09:28:43Z</time>
      </trkpt>
      <trkpt lat="48.48663" lon="2.38025">
        <ele>149.62</ele>
        <time>2014-03-05T09:28:56Z</time>
      </trkpt>
      <trkpt lat="48.48659" lon="2.38049">
        <ele>148.18</ele>
        <time>2014-03-05T09:29:09Z</time>
      </trkpt>
      <trkpt lat="48.48658" lon="2.38053">
        <ele>147.7</ele>
        <time>2014-03-05T09:29:11Z</time>
      </trkpt>
      <trkpt lat="48.48655" lon="2.38058">
        <ele>147.7</ele>
        <time>2014-03-05T09:29:14Z</time>
      </trkpt>
      <trkpt lat="48.48654" lon="2.38068">
        <ele>147.22</ele>
        <time>2014-03-05T09:29:18Z</time>
      </trkpt>
      <trkpt lat="48.48651" lon="2.38084">
        <ele>144.34</ele>
        <time>2014-03-05T09:29:25Z</time>
      </trkpt>
      <trkpt lat="48.48647" lon="2.38101">
        <ele>143.37</ele>
        <time>2014-03-05T09:29:31Z</time>
      </trkpt>
      <trkpt lat="48.48642" lon="2.38119">
        <ele>144.82</ele>
        <time>2014-03-05T09:29:42Z</time>
      </trkpt>
      <trkpt lat="48.48636" lon="2.38142">
        <ele>142.89</ele>
        <time>2014-03-05T09:29:54Z</time>
      </trkpt>
      <trkpt lat="48.48635" lon="2.38151">
        <ele>143.85</ele>
        <time>2014-03-05T09:30:01Z</time>
      </trkpt>
      <trkpt lat="48.48631" lon="2.38175">
        <ele>145.78</ele>
        <time>2014-03-05T09:30:12Z</time>
      </trkpt>
      <trkpt lat="48.48631" lon="2.3818">
        <ele>146.26</ele>
        <time>2014-03-05T09:30:15Z</time>
      </trkpt>
      <trkpt lat="48.4863" lon="2.38187">
        <ele>146.26</ele>
        <time>2014-03-05T09:30:18Z</time>
      </trkpt>
      <trkpt lat="48.48625" lon="2.382">
        <ele>143.85</ele>
        <time>2014-03-05T09:30:25Z</time>
      </trkpt>
      <trkpt lat="48.48622" lon="2.38213">
        <ele>142.89</ele>
        <time>2014-03-05T09:30:30Z</time>
      </trkpt>
      <trkpt lat="48.48619" lon="2.38222">
        <ele>140.97</ele>
        <time>2014-03-05T09:30:36Z</time>
      </trkpt>
      <trkpt lat="48.48615" lon="2.38237">
        <ele>140.49</ele>
        <time>2014-03-05T09:30:42Z</time>
      </trkpt>
      <trkpt lat="48.48611" lon="2.38261">
        <ele>142.41</ele>
        <time>2014-03-05T09:30:54Z</time>
      </trkpt>
      <trkpt lat="48.48607" lon="2.38274">
        <ele>140.49</ele>
        <time>2014-03-05T09:31:03Z</time>
      </trkpt>
      <trkpt lat="48.48601" lon="2.38298">
        <ele>137.61</ele>
        <time>2014-03-05T09:31:16Z</time>
      </trkpt>
      <trkpt lat="48.48595" lon="2.38324">
        <ele>137.61</ele>
        <time>2014-03-05T09:31:29Z</time>
      </trkpt>
      <trkpt lat="48.48591" lon="2.3834">
        <ele>134.24</ele>
        <time>2014-03-05T09:31:38Z</time>
      </trkpt>
      <trkpt lat="48.48588" lon="2.38355">
        <ele>132.32</ele>
        <time>2014-03-05T09:31:45Z</time>
      </trkpt>
      <trkpt lat="48.48585" lon="2.38366">
        <ele>131.36</ele>
        <time>2014-03-05T09:31:53Z</time>
      </trkpt>
      <trkpt lat="48.48579" lon="2.38392">
        <ele>131.36</ele>
        <time>2014-03-05T09:32:06Z</time>
      </trkpt>
      <trkpt lat="48.48573" lon="2.38409">
        <ele>130.88</ele>
        <time>2014-03-05T09:32:13Z</time>
      </trkpt>
      <trkpt lat="48.48563" lon="2.38436">
        <ele>132.32</ele>
        <time>2014-03-05T09:32:26Z</time>
      </trkpt>
      <trkpt lat="48.48555" lon="2.38458">
        <ele>134.72</ele>
        <time>2014-03-05T09:32:37Z</time>
      </trkpt>
      <trkpt lat="48.48548" lon="2.38482">
        <ele>133.76</ele>
        <time>2014-03-05T09:32:49Z</time>
      </trkpt>
      <trkpt lat="48.48548" lon="2.38486">
        <ele>133.28</ele>
        <time>2014-03-05T09:32:53Z</time>
      </trkpt>
      <trkpt lat="48.48546" lon="2.38495">
        <ele>132.8</ele>
        <time>2014-03-05T09:32:57Z</time>
      </trkpt>
      <trkpt lat="48.48538" lon="2.38525">
        <ele>130.88</ele>
        <time>2014-03-05T09:33:11Z</time>
      </trkpt>
      <trkpt lat="48.48535" lon="2.38554">
        <ele>132.32</ele>
        <time>2014-03-05T09:33:25Z</time>
      </trkpt>
      <trkpt lat="48.48532" lon="2.38579">
        <ele>132.32</ele>
        <time>2014-03-05T09:33:37Z</time>
      </trkpt>
      <trkpt lat="48.48529" lon="2.386">
        <ele>129.92</ele>
        <time>2014-03-05T09:33:47Z</time>
      </trkpt>
      <trkpt lat="48.48522" lon="2.38621">
        <ele>129.43</ele>
        <time>2014-03-05T09:33:58Z</time>
      </trkpt>
      <trkpt lat="48.48515" lon="2.38644">
        <ele>128.47</ele>
        <time>2014-03-05T09:34:10Z</time>
      </trkpt>
      <trkpt lat="48.48504" lon="2.3867">
        <ele>128.47</ele>
        <time>2014-03-05T09:34:25Z</time>
      </trkpt>
      <trkpt lat="48.48503" lon="2.38673">
        <ele>128.47</ele>
        <time>2014-03-05T09:34:27Z</time>
      </trkpt>
      <trkpt lat="48.48497" lon="2.38684">
        <ele>128.47</ele>
        <time>2014-03-05T09:34:32Z</time>
      </trkpt>
      <trkpt lat="48.48488" lon="2.38706">
        <ele>130.4</ele>
        <time>2014-03-05T09:34:44Z</time>
      </trkpt>
      <trkpt lat="48.48484" lon="2.3873">
        <ele>130.4</ele>
        <time>2014-03-05T09:34:56Z</time>
      </trkpt>
      <trkpt lat="48.48483" lon="2.38742">
        <ele>129.92</ele>
        <time>2014-03-05T09:35:03Z</time>
      </trkpt>
      <trkpt lat="48.48478" lon="2.38772">
        <ele>128.95</ele>
        <time>2014-03-05T09:35:17Z</time>
      </trkpt>
      <trkpt lat="48.48478" lon="2.38774">
        <ele>128.95</ele>
        <time>2014-03-05T09:35:19Z</time>
      </trkpt>
      <trkpt lat="48.4847" lon="2.38803">
        <ele>128.95</ele>
        <time>2014-03-05T09:35:33Z</time>
      </trkpt>
      <trkpt lat="48.48458" lon="2.38822">
        <ele>128.95</ele>
        <time>2014-03-05T09:35:45Z</time>
      </trkpt>
      <trkpt lat="48.48457" lon="2.38822">
        <ele>128.95</ele>
        <time>2014-03-05T09:35:46Z</time>
      </trkpt>
      <trkpt lat="48.48443" lon="2.38829">
        <ele>129.43</ele>
        <time>2014-03-05T09:35:57Z</time>
      </trkpt>
      <trkpt lat="48.48429" lon="2.38843">
        <ele>129.43</ele>
        <time>2014-03-05T09:36:13Z</time>
      </trkpt>
      <trkpt lat="48.48417" lon="2.38855">
        <ele>128.47</ele>
        <time>2014-03-05T09:36:34Z</time>
      </trkpt>
      <trkpt lat="48.48403" lon="2.38867">
        <ele>128.47</ele>
        <time>2014-03-05T09:36:45Z</time>
      </trkpt>
      <trkpt lat="48.48385" lon="2.38877">
        <ele>128.95</ele>
        <time>2014-03-05T09:36:58Z</time>
      </trkpt>
      <trkpt lat="48.48367" lon="2.38885">
        <ele>128.47</ele>
        <time>2014-03-05T09:37:12Z</time>
      </trkpt>
      <trkpt lat="48.48362" lon="2.38888">
        <ele>127.51</ele>
        <time>2014-03-05T09:37:17Z</time>
      </trkpt>
      <trkpt lat="48.48355" lon="2.38897">
        <ele>127.51</ele>
        <time>2014-03-05T09:37:22Z</time>
      </trkpt>
      <trkpt lat="48.48341" lon="2.38919">
        <ele>127.99</ele>
        <time>2014-03-05T09:37:36Z</time>
      </trkpt>
      <trkpt lat="48.48323" lon="2.38931">
        <ele>129.92</ele>
        <time>2014-03-05T09:37:50Z</time>
      </trkpt>
      <trkpt lat="48.48302" lon="2.38935">
        <ele>130.4</ele>
        <time>2014-03-05T09:38:05Z</time>
      </trkpt>
      <trkpt lat="48.48283" lon="2.38935">
        <ele>130.4</ele>
        <time>2014-03-05T09:38:19Z</time>
      </trkpt>
      <trkpt lat="48.48263" lon="2.38936">
        <ele>131.84</ele>
        <time>2014-03-05T09:38:34Z</time>
      </trkpt>
      <trkpt lat="48.48243" lon="2.38937">
        <ele>130.88</ele>
        <time>2014-03-05T09:38:48Z</time>
      </trkpt>
      <trkpt lat="48.48226" lon="2.38939">
        <ele>130.88</ele>
        <time>2014-03-05T09:39:01Z</time>
      </trkpt>
      <trkpt lat="48.4821" lon="2.38942">
        <ele>131.84</ele>
        <time>2014-03-05T09:39:12Z</time>
      </trkpt>
      <trkpt lat="48.48202" lon="2.38945">
        <ele>131.36</ele>
        <time>2014-03-05T09:39:17Z</time>
      </trkpt>
      <trkpt lat="48.48193" lon="2.3895">
        <ele>131.36</ele>
        <time>2014-03-05T09:39:24Z</time>
      </trkpt>
      <trkpt lat="48.48185" lon="2.38954">
        <ele>130.88</ele>
        <time>2014-03-05T09:39:29Z</time>
      </trkpt>
      <trkpt lat="48.48181" lon="2.38959">
        <ele>129.92</ele>
        <time>2014-03-05T09:39:34Z</time>
      </trkpt>
      <trkpt lat="48.48166" lon="2.38977">
        <ele>128.95</ele>
        <time>2014-03-05T09:39:46Z</time>
      </trkpt>
      <trkpt lat="48.48145" lon="2.3901">
        <ele>128.47</ele>
        <time>2014-03-05T09:40:08Z</time>
      </trkpt>
      <trkpt lat="48.4813" lon="2.39035">
        <ele>128.47</ele>
        <time>2014-03-05T09:40:22Z</time>
      </trkpt>
      <trkpt lat="48.48121" lon="2.39048">
        <ele>129.43</ele>
        <time>2014-03-05T09:40:32Z</time>
      </trkpt>
      <trkpt lat="48.48104" lon="2.3908">
        <ele>129.43</ele>
        <time>2014-03-05T09:40:52Z</time>
      </trkpt>
      <trkpt lat="48.4808" lon="2.39107">
        <ele>131.84</ele>
        <time>2014-03-05T09:41:15Z</time>
      </trkpt>
      <trkpt lat="48.48068" lon="2.39128">
        <ele>130.88</ele>
        <time>2014-03-05T09:41:30Z</time>
      </trkpt>
      <trkpt lat="48.48064" lon="2.39156">
        <ele>129.43</ele>
        <time>2014-03-05T09:41:45Z</time>
      </trkpt>
      <trkpt lat="48.48057" lon="2.3919">
        <ele>131.84</ele>
        <time>2014-03-05T09:42:05Z</time>
      </trkpt>
      <trkpt lat="48.48053" lon="2.39197">
        <ele>133.28</ele>
        <time>2014-03-05T09:42:10Z</time>
      </trkpt>
      <trkpt lat="48.48055" lon="2.39213">
        <ele>134.24</ele>
        <time>2014-03-05T09:42:17Z</time>
      </trkpt>
      <trkpt lat="48.48056" lon="2.39229">
        <ele>136.16</ele>
        <time>2014-03-05T09:42:26Z</time>
      </trkpt>
      <trkpt lat="48.4806" lon="2.39261">
        <ele>138.57</ele>
        <time>2014-03-05T09:42:42Z</time>
      </trkpt>
      <trkpt lat="48.48061" lon="2.39271">
        <ele>139.05</ele>
        <time>2014-03-05T09:42:46Z</time>
      </trkpt>
      <trkpt lat="48.48061" lon="2.3928">
        <ele>139.05</ele>
        <time>2014-03-05T09:42:49Z</time>
      </trkpt>
      <trkpt lat="48.48063" lon="2.39291">
        <ele>138.09</ele>
        <time>2014-03-05T09:42:53Z</time>
      </trkpt>
      <trkpt lat="48.48062" lon="2.39319">
        <ele>136.16</ele>
        <time>2014-03-05T09:43:09Z</time>
      </trkpt>
      <trkpt lat="48.48047" lon="2.3935">
        <ele>137.13</ele>
        <time>2014-03-05T09:43:28Z</time>
      </trkpt>
      <trkpt lat="48.48036" lon="2.39388">
        <ele>136.16</ele>
        <time>2014-03-05T09:43:47Z</time>
      </trkpt>
      <trkpt lat="48.48026" lon="2.3943">
        <ele>132.32</ele>
        <time>2014-03-05T09:44:08Z</time>
      </trkpt>
      <trkpt lat="48.48016" lon="2.39466">
        <ele>131.36</ele>
        <time>2014-03-05T09:44:26Z</time>
      </trkpt>
      <trkpt lat="48.48008" lon="2.39502">
        <ele>132.8</ele>
        <time>2014-03-05T09:44:44Z</time>
      </trkpt>
      <trkpt lat="48.47998" lon="2.39532">
        <ele>132.32</ele>
        <time>2014-03-05T09:45:01Z</time>
      </trkpt>
      <trkpt lat="48.47987" lon="2.39561">
        <ele>133.28</ele>
        <time>2014-03-05T09:45:17Z</time>
      </trkpt>
      <trkpt lat="48.47969" lon="2.39591">
        <ele>134.72</ele>
        <time>2014-03-05T09:45:36Z</time>
      </trkpt>
      <trkpt lat="48.47951" lon="2.39624">
        <ele>132.8</ele>
        <time>2014-03-05T09:45:55Z</time>
      </trkpt>
      <trkpt lat="48.47937" lon="2.39649">
        <ele>132.32</ele>
        <time>2014-03-05T09:46:11Z</time>
      </trkpt>
      <trkpt lat="48.47925" lon="2.39682">
        <ele>131.84</ele>
        <time>2014-03-05T09:46:29Z</time>
      </trkpt>
      <trkpt lat="48.47922" lon="2.39712">
        <ele>129.92</ele>
        <time>2014-03-05T09:46:44Z</time>
      </trkpt>
      <trkpt lat="48.47923" lon="2.39745">
        <ele>129.43</ele>
        <time>2014-03-05T09:47:00Z</time>
      </trkpt>
      <trkpt lat="48.47935" lon="2.39778">
        <ele>130.4</ele>
        <time>2014-03-05T09:47:19Z</time>
      </trkpt>
      <trkpt lat="48.4795" lon="2.39803">
        <ele>131.36</ele>
        <time>2014-03-05T09:47:36Z</time>
      </trkpt>
      <trkpt lat="48.47964" lon="2.39833">
        <ele>131.36</ele>
        <time>2014-03-05T09:47:53Z</time>
      </trkpt>
      <trkpt lat="48.47976" lon="2.39857">
        <ele>132.8</ele>
        <time>2014-03-05T09:48:08Z</time>
      </trkpt>
      <trkpt lat="48.47978" lon="2.39863">
        <ele>132.8</ele>
        <time>2014-03-05T09:48:12Z</time>
      </trkpt>
      <trkpt lat="48.47996" lon="2.39898">
        <ele>134.72</ele>
        <time>2014-03-05T09:48:34Z</time>
      </trkpt>
      <trkpt lat="48.48001" lon="2.39906">
        <ele>135.68</ele>
        <time>2014-03-05T09:48:49Z</time>
      </trkpt>
      <trkpt lat="48.48017" lon="2.39931">
        <ele>138.09</ele>
        <time>2014-03-05T09:49:08Z</time>
      </trkpt>
      <trkpt lat="48.48021" lon="2.39939">
        <ele>139.05</ele>
        <time>2014-03-05T09:49:13Z</time>
      </trkpt>
      <trkpt lat="48.48023" lon="2.39941">
        <ele>136.16</ele>
        <time>2014-03-05T09:49:28Z</time>
      </trkpt>
      <trkpt lat="48.48035" lon="2.39964">
        <ele>137.61</ele>
        <time>2014-03-05T09:49:44Z</time>
      </trkpt>
      <trkpt lat="48.48049" lon="2.39999">
        <ele>137.13</ele>
        <time>2014-03-05T09:50:02Z</time>
      </trkpt>
      <trkpt lat="48.48052" lon="2.40009">
        <ele>137.13</ele>
        <time>2014-03-05T09:50:09Z</time>
      </trkpt>
      <trkpt lat="48.4806" lon="2.40036">
        <ele>137.61</ele>
        <time>2014-03-05T09:50:22Z</time>
      </trkpt>
      <trkpt lat="48.4807" lon="2.40064">
        <ele>138.57</ele>
        <time>2014-03-05T09:50:36Z</time>
      </trkpt>
      <trkpt lat="48.48073" lon="2.40074">
        <ele>137.13</ele>
        <time>2014-03-05T09:50:43Z</time>
      </trkpt>
      <trkpt lat="48.48076" lon="2.40095">
        <ele>135.68</ele>
        <time>2014-03-05T09:50:53Z</time>
      </trkpt>
      <trkpt lat="48.48077" lon="2.401">
        <ele>136.16</ele>
        <time>2014-03-05T09:50:56Z</time>
      </trkpt>
      <trkpt lat="48.48077" lon="2.40123">
        <ele>136.64</ele>
        <time>2014-03-05T09:51:04Z</time>
      </trkpt>
      <trkpt lat="48.48081" lon="2.40157">
        <ele>136.16</ele>
        <time>2014-03-05T09:51:22Z</time>
      </trkpt>
      <trkpt lat="48.48084" lon="2.40184">
        <ele>134.24</ele>
        <time>2014-03-05T09:51:33Z</time>
      </trkpt>
      <trkpt lat="48.48085" lon="2.40188">
        <ele>133.76</ele>
        <time>2014-03-05T09:51:36Z</time>
      </trkpt>
      <trkpt lat="48.48087" lon="2.40205">
        <ele>133.76</ele>
        <time>2014-03-05T09:51:43Z</time>
      </trkpt>
      <trkpt lat="48.48086" lon="2.40243">
        <ele>132.8</ele>
        <time>2014-03-05T09:52:00Z</time>
      </trkpt>
      <trkpt lat="48.4809" lon="2.40273">
        <ele>131.84</ele>
        <time>2014-03-05T09:52:17Z</time>
      </trkpt>
      <trkpt lat="48.48092" lon="2.40294">
        <ele>132.32</ele>
        <time>2014-03-05T09:52:30Z</time>
      </trkpt>
      <trkpt lat="48.4809" lon="2.4032">
        <ele>132.32</ele>
        <time>2014-03-05T09:52:40Z</time>
      </trkpt>
      <trkpt lat="48.48091" lon="2.40348">
        <ele>132.32</ele>
        <time>2014-03-05T09:52:53Z</time>
      </trkpt>
      <trkpt lat="48.48091" lon="2.40357">
        <ele>132.8</ele>
        <time>2014-03-05T09:52:59Z</time>
      </trkpt>
      <trkpt lat="48.48094" lon="2.40383">
        <ele>132.8</ele>
        <time>2014-03-05T09:53:11Z</time>
      </trkpt>
      <trkpt lat="48.48098" lon="2.40407">
        <ele>130.88</ele>
        <time>2014-03-05T09:53:21Z</time>
      </trkpt>
      <trkpt lat="48.48101" lon="2.40415">
        <ele>130.4</ele>
        <time>2014-03-05T09:53:28Z</time>
      </trkpt>
      <trkpt lat="48.48106" lon="2.40443">
        <ele>129.92</ele>
        <time>2014-03-05T09:53:39Z</time>
      </trkpt>
      <trkpt lat="48.48108" lon="2.40449">
        <ele>129.92</ele>
        <time>2014-03-05T09:53:44Z</time>
      </trkpt>
      <trkpt lat="48.4811" lon="2.40462">
        <ele>129.92</ele>
        <time>2014-03-05T09:53:50Z</time>
      </trkpt>
      <trkpt lat="48.48111" lon="2.40474">
        <ele>130.4</ele>
        <time>2014-03-05T09:53:56Z</time>
      </trkpt>
      <trkpt lat="48.4811" lon="2.40506">
        <ele>132.8</ele>
        <time>2014-03-05T09:54:12Z</time>
      </trkpt>
      <trkpt lat="48.48109" lon="2.4051">
        <ele>132.8</ele>
        <time>2014-03-05T09:54:14Z</time>
      </trkpt>
      <trkpt lat="48.48107" lon="2.40524">
        <ele>132.32</ele>
        <time>2014-03-05T09:54:20Z</time>
      </trkpt>
      <trkpt lat="48.48103" lon="2.4056">
        <ele>130.88</ele>
        <time>2014-03-05T09:54:37Z</time>
      </trkpt>
      <trkpt lat="48.48101" lon="2.40588">
        <ele>130.88</ele>
        <time>2014-03-05T09:54:50Z</time>
      </trkpt>
      <trkpt lat="48.48105" lon="2.40623">
        <ele>130.88</ele>
        <time>2014-03-05T09:55:06Z</time>
      </trkpt>
      <trkpt lat="48.48107" lon="2.40653">
        <ele>130.88</ele>
        <time>2014-03-05T09:55:20Z</time>
      </trkpt>
      <trkpt lat="48.48109" lon="2.40683">
        <ele>131.84</ele>
        <time>2014-03-05T09:55:35Z</time>
      </trkpt>
      <trkpt lat="48.4811" lon="2.40702">
        <ele>134.24</ele>
        <time>2014-03-05T09:55:49Z</time>
      </trkpt>
      <trkpt lat="48.48113" lon="2.40724">
        <ele>132.8</ele>
        <time>2014-03-05T09:56:02Z</time>
      </trkpt>
      <trkpt lat="48.48115" lon="2.40758">
        <ele>132.8</ele>
        <time>2014-03-05T09:56:18Z</time>
      </trkpt>
      <trkpt lat="48.48115" lon="2.4079">
        <ele>134.72</ele>
        <time>2014-03-05T09:56:33Z</time>
      </trkpt>
      <trkpt lat="48.48115" lon="2.40821">
        <ele>132.8</ele>
        <time>2014-03-05T09:56:47Z</time>
      </trkpt>
      <trkpt lat="48.48116" lon="2.4083">
        <ele>132.32</ele>
        <time>2014-03-05T09:56:53Z</time>
      </trkpt>
      <trkpt lat="48.48115" lon="2.40869">
        <ele>135.2</ele>
        <time>2014-03-05T09:57:11Z</time>
      </trkpt>
      <trkpt lat="48.48114" lon="2.40902">
        <ele>135.68</ele>
        <time>2014-03-05T09:57:26Z</time>
      </trkpt>
      <trkpt lat="48.48112" lon="2.40932">
        <ele>137.61</ele>
        <time>2014-03-05T09:57:40Z</time>
      </trkpt>
      <trkpt lat="48.48111" lon="2.40956">
        <ele>139.53</ele>
        <time>2014-03-05T09:57:52Z</time>
      </trkpt>
      <trkpt lat="48.48108" lon="2.40983">
        <ele>143.37</ele>
        <time>2014-03-05T09:58:05Z</time>
      </trkpt>
      <trkpt lat="48.48106" lon="2.41016">
        <ele>144.82</ele>
        <time>2014-03-05T09:58:21Z</time>
      </trkpt>
      <trkpt lat="48.48107" lon="2.41049">
        <ele>143.37</ele>
        <time>2014-03-05T09:58:37Z</time>
      </trkpt>
      <trkpt lat="48.48106" lon="2.41084">
        <ele>142.89</ele>
        <time>2014-03-05T09:58:53Z</time>
      </trkpt>
      <trkpt lat="48.48105" lon="2.41112">
        <ele>143.37</ele>
        <time>2014-03-05T09:59:07Z</time>
      </trkpt>
      <trkpt lat="48.48104" lon="2.41135">
        <ele>143.37</ele>
        <time>2014-03-05T09:59:18Z</time>
      </trkpt>
      <trkpt lat="48.48102" lon="2.41165">
        <ele>145.3</ele>
        <time>2014-03-05T09:59:35Z</time>
      </trkpt>
      <trkpt lat="48.48102" lon="2.41168">
        <ele>145.3</ele>
        <time>2014-03-05T09:59:54Z</time>
      </trkpt>
      <trkpt lat="48.48102" lon="2.41173">
        <ele>145.78</ele>
        <time>2014-03-05T10:00:01Z</time>
      </trkpt>
      <trkpt lat="48.481" lon="2.41199">
        <ele>144.34</ele>
        <time>2014-03-05T10:00:19Z</time>
      </trkpt>
      <trkpt lat="48.481" lon="2.4121">
        <ele>141.93</ele>
        <time>2014-03-05T10:00:43Z</time>
      </trkpt>
      <trkpt lat="48.48094" lon="2.41264">
        <ele>140.97</ele>
        <time>2014-03-05T10:01:08Z</time>
      </trkpt>
      <trkpt lat="48.48092" lon="2.41303">
        <ele>140.49</ele>
        <time>2014-03-05T10:01:27Z</time>
      </trkpt>
      <trkpt lat="48.48089" lon="2.41345">
        <ele>143.37</ele>
        <time>2014-03-05T10:01:48Z</time>
      </trkpt>
      <trkpt lat="48.48086" lon="2.41376">
        <ele>143.85</ele>
        <time>2014-03-05T10:02:03Z</time>
      </trkpt>
      <trkpt lat="48.48086" lon="2.41384">
        <ele>144.34</ele>
        <time>2014-03-05T10:02:07Z</time>
      </trkpt>
      <trkpt lat="48.48082" lon="2.41426">
        <ele>144.82</ele>
        <time>2014-03-05T10:02:27Z</time>
      </trkpt>
      <trkpt lat="48.4808" lon="2.41465">
        <ele>145.3</ele>
        <time>2014-03-05T10:02:47Z</time>
      </trkpt>
      <trkpt lat="48.4808" lon="2.41471">
        <ele>144.82</ele>
        <time>2014-03-05T10:02:50Z</time>
      </trkpt>
      <trkpt lat="48.48095" lon="2.41484">
        <ele>145.3</ele>
        <time>2014-03-05T10:03:05Z</time>
      </trkpt>
      <trkpt lat="48.48118" lon="2.41493">
        <ele>145.3</ele>
        <time>2014-03-05T10:03:21Z</time>
      </trkpt>
      <trkpt lat="48.48142" lon="2.41505">
        <ele>147.22</ele>
        <time>2014-03-05T10:03:39Z</time>
      </trkpt>
      <trkpt lat="48.48161" lon="2.41513">
        <ele>148.18</ele>
        <time>2014-03-05T10:03:56Z</time>
      </trkpt>
      <trkpt lat="48.48183" lon="2.41518">
        <ele>149.14</ele>
        <time>2014-03-05T10:04:13Z</time>
      </trkpt>
      <trkpt lat="48.48204" lon="2.41524">
        <ele>149.14</ele>
        <time>2014-03-05T10:04:30Z</time>
      </trkpt>
      <trkpt lat="48.48226" lon="2.41528">
        <ele>148.66</ele>
        <time>2014-03-05T10:04:46Z</time>
      </trkpt>
      <trkpt lat="48.48251" lon="2.41537">
        <ele>149.14</ele>
        <time>2014-03-05T10:05:05Z</time>
      </trkpt>
      <trkpt lat="48.48271" lon="2.41546">
        <ele>150.58</ele>
        <time>2014-03-05T10:05:21Z</time>
      </trkpt>
      <trkpt lat="48.48295" lon="2.41558">
        <ele>151.54</ele>
        <time>2014-03-05T10:05:39Z</time>
      </trkpt>
      <trkpt lat="48.48318" lon="2.41568">
        <ele>152.03</ele>
        <time>2014-03-05T10:05:57Z</time>
      </trkpt>
      <trkpt lat="48.48337" lon="2.41578">
        <ele>155.39</ele>
        <time>2014-03-05T10:06:12Z</time>
      </trkpt>
      <trkpt lat="48.48358" lon="2.41591">
        <ele>156.83</ele>
        <time>2014-03-05T10:06:30Z</time>
      </trkpt>
      <trkpt lat="48.4838" lon="2.41601">
        <ele>155.87</ele>
        <time>2014-03-05T10:06:45Z</time>
      </trkpt>
      <trkpt lat="48.48404" lon="2.41614">
        <ele>155.39</ele>
        <time>2014-03-05T10:07:03Z</time>
      </trkpt>
      <trkpt lat="48.48429" lon="2.41628">
        <ele>154.43</ele>
        <time>2014-03-05T10:07:22Z</time>
      </trkpt>
      <trkpt lat="48.48457" lon="2.41641">
        <ele>150.58</ele>
        <time>2014-03-05T10:07:42Z</time>
      </trkpt>
      <trkpt lat="48.4848" lon="2.41652">
        <ele>147.22</ele>
        <time>2014-03-05T10:07:59Z</time>
      </trkpt>
      <trkpt lat="48.48502" lon="2.41665">
        <ele>145.3</ele>
        <time>2014-03-05T10:08:15Z</time>
      </trkpt>
      <trkpt lat="48.48524" lon="2.41676">
        <ele>145.3</ele>
        <time>2014-03-05T10:08:32Z</time>
      </trkpt>
      <trkpt lat="48.48547" lon="2.41685">
        <ele>143.37</ele>
        <time>2014-03-05T10:08:48Z</time>
      </trkpt>
      <trkpt lat="48.4857" lon="2.41696">
        <ele>137.61</ele>
        <time>2014-03-05T10:09:05Z</time>
      </trkpt>
      <trkpt lat="48.48589" lon="2.41704">
        <ele>136.16</ele>
        <time>2014-03-05T10:09:19Z</time>
      </trkpt>
      <trkpt lat="48.48603" lon="2.41711">
        <ele>134.24</ele>
        <time>2014-03-05T10:09:31Z</time>
      </trkpt>
      <trkpt lat="48.48619" lon="2.41719">
        <ele>133.76</ele>
        <time>2014-03-05T10:09:44Z</time>
      </trkpt>
      <trkpt lat="48.48634" lon="2.4173">
        <ele>132.8</ele>
        <time>2014-03-05T10:09:58Z</time>
      </trkpt>
      <trkpt lat="48.4865" lon="2.41749">
        <ele>132.32</ele>
        <time>2014-03-05T10:10:14Z</time>
      </trkpt>
      <trkpt lat="48.4867" lon="2.41769">
        <ele>130.88</ele>
        <time>2014-03-05T10:10:31Z</time>
      </trkpt>
      <trkpt lat="48.48695" lon="2.41786">
        <ele>127.51</ele>
        <time>2014-03-05T10:10:50Z</time>
      </trkpt>
      <trkpt lat="48.48715" lon="2.41794">
        <ele>127.51</ele>
        <time>2014-03-05T10:11:02Z</time>
      </trkpt>
      <trkpt lat="48.48741" lon="2.41795">
        <ele>127.51</ele>
        <time>2014-03-05T10:11:21Z</time>
      </trkpt>
      <trkpt lat="48.4876" lon="2.41794">
        <ele>128.95</ele>
        <time>2014-03-05T10:11:37Z</time>
      </trkpt>
      <trkpt lat="48.4879" lon="2.41793">
        <ele>133.76</ele>
        <time>2014-03-05T10:12:03Z</time>
      </trkpt>
      <trkpt lat="48.48808" lon="2.41792">
        <ele>136.16</ele>
        <time>2014-03-05T10:12:21Z</time>
      </trkpt>
      <trkpt lat="48.48828" lon="2.41792">
        <ele>138.09</ele>
        <time>2014-03-05T10:12:39Z</time>
      </trkpt>
      <trkpt lat="48.48852" lon="2.418">
        <ele>136.16</ele>
        <time>2014-03-05T10:12:55Z</time>
      </trkpt>
      <trkpt lat="48.48874" lon="2.41803">
        <ele>133.28</ele>
        <time>2014-03-05T10:13:14Z</time>
      </trkpt>
      <trkpt lat="48.48902" lon="2.41808">
        <ele>129.43</ele>
        <time>2014-03-05T10:13:36Z</time>
      </trkpt>
      <trkpt lat="48.48916" lon="2.41813">
        <ele>129.92</ele>
        <time>2014-03-05T10:13:47Z</time>
      </trkpt>
      <trkpt lat="48.48923" lon="2.41814">
        <ele>132.32</ele>
        <time>2014-03-05T10:13:51Z</time>
      </trkpt>
      <trkpt lat="48.48943" lon="2.41821">
        <ele>134.72</ele>
        <time>2014-03-05T10:14:07Z</time>
      </trkpt>
      <trkpt lat="48.48944" lon="2.41821">
        <ele>134.72</ele>
        <time>2014-03-05T10:14:08Z</time>
      </trkpt>
      <trkpt lat="48.4895" lon="2.41809">
        <ele>135.2</ele>
        <time>2014-03-05T10:14:13Z</time>
      </trkpt>
      <trkpt lat="48.48962" lon="2.41779">
        <ele>135.68</ele>
        <time>2014-03-05T10:14:29Z</time>
      </trkpt>
      <trkpt lat="48.48972" lon="2.41765">
        <ele>135.2</ele>
        <time>2014-03-05T10:14:38Z</time>
      </trkpt>
      <trkpt lat="48.48975" lon="2.41748">
        <ele>137.61</ele>
        <time>2014-03-05T10:14:46Z</time>
      </trkpt>
      <trkpt lat="48.48987" lon="2.41724">
        <ele>136.64</ele>
        <time>2014-03-05T10:15:01Z</time>
      </trkpt>
      <trkpt lat="48.48993" lon="2.41714">
        <ele>136.64</ele>
        <time>2014-03-05T10:15:07Z</time>
      </trkpt>
      <trkpt lat="48.4901" lon="2.41697">
        <ele>134.72</ele>
        <time>2014-03-05T10:15:22Z</time>
      </trkpt>
      <trkpt lat="48.49023" lon="2.41675">
        <ele>132.8</ele>
        <time>2014-03-05T10:15:37Z</time>
      </trkpt>
      <trkpt lat="48.49041" lon="2.41656">
        <ele>130.88</ele>
        <time>2014-03-05T10:15:52Z</time>
      </trkpt>
      <trkpt lat="48.49046" lon="2.41649">
        <ele>130.4</ele>
        <time>2014-03-05T10:15:58Z</time>
      </trkpt>
      <trkpt lat="48.49057" lon="2.41639">
        <ele>131.36</ele>
        <time>2014-03-05T10:16:06Z</time>
      </trkpt>
      <trkpt lat="48.49065" lon="2.41633">
        <ele>129.92</ele>
        <time>2014-03-05T10:16:12Z</time>
      </trkpt>
      <trkpt lat="48.49067" lon="2.41625">
        <ele>129.43</ele>
        <time>2014-03-05T10:16:16Z</time>
      </trkpt>
      <trkpt lat="48.49079" lon="2.41606">
        <ele>127.03</ele>
        <time>2014-03-05T10:16:31Z</time>
      </trkpt>
      <trkpt lat="48.49095" lon="2.41585">
        <ele>123.67</ele>
        <time>2014-03-05T10:16:48Z</time>
      </trkpt>
      <trkpt lat="48.49109" lon="2.41567">
        <ele>127.99</ele>
        <time>2014-03-05T10:17:02Z</time>
      </trkpt>
      <trkpt lat="48.49119" lon="2.41554">
        <ele>131.36</ele>
        <time>2014-03-05T10:17:19Z</time>
      </trkpt>
      <trkpt lat="48.49116" lon="2.41546">
        <ele>132.32</ele>
        <time>2014-03-05T10:17:34Z</time>
      </trkpt>
      <trkpt lat="48.49115" lon="2.41539">
        <ele>132.8</ele>
        <time>2014-03-05T10:17:47Z</time>
      </trkpt>
      <trkpt lat="48.49118" lon="2.41547">
        <ele>133.76</ele>
        <time>2014-03-05T10:18:12Z</time>
      </trkpt>
      <trkpt lat="48.49124" lon="2.41549">
        <ele>134.24</ele>
        <time>2014-03-05T10:18:26Z</time>
      </trkpt>
      <trkpt lat="48.49128" lon="2.41532">
        <ele>138.09</ele>
        <time>2014-03-05T10:18:39Z</time>
      </trkpt>
      <trkpt lat="48.49124" lon="2.41502">
        <ele>141.93</ele>
        <time>2014-03-05T10:18:56Z</time>
      </trkpt>
      <trkpt lat="48.49119" lon="2.4149">
        <ele>140.97</ele>
        <time>2014-03-05T10:19:08Z</time>
      </trkpt>
      <trkpt lat="48.49119" lon="2.41487">
        <ele>140.49</ele>
        <time>2014-03-05T10:19:29Z</time>
      </trkpt>
      <trkpt lat="48.49118" lon="2.41485">
        <ele>139.05</ele>
        <time>2014-03-05T10:19:36Z</time>
      </trkpt>
      <trkpt lat="48.49113" lon="2.41481">
        <ele>139.05</ele>
        <time>2014-03-05T10:19:41Z</time>
      </trkpt>
      <trkpt lat="48.49091" lon="2.41463">
        <ele>144.82</ele>
        <time>2014-03-05T10:20:00Z</time>
      </trkpt>
      <trkpt lat="48.49073" lon="2.41442">
        <ele>146.74</ele>
        <time>2014-03-05T10:20:16Z</time>
      </trkpt>
      <trkpt lat="48.49068" lon="2.41437">
        <ele>146.74</ele>
        <time>2014-03-05T10:20:21Z</time>
      </trkpt>
      <trkpt lat="48.49044" lon="2.41422">
        <ele>144.82</ele>
        <time>2014-03-05T10:20:41Z</time>
      </trkpt>
      <trkpt lat="48.49034" lon="2.41418">
        <ele>144.34</ele>
        <time>2014-03-05T10:20:48Z</time>
      </trkpt>
      <trkpt lat="48.49015" lon="2.41407">
        <ele>142.89</ele>
        <time>2014-03-05T10:21:03Z</time>
      </trkpt>
      <trkpt lat="48.49004" lon="2.41403">
        <ele>141.93</ele>
        <time>2014-03-05T10:21:09Z</time>
      </trkpt>
      <trkpt lat="48.48995" lon="2.41398">
        <ele>140.97</ele>
        <time>2014-03-05T10:21:16Z</time>
      </trkpt>
      <trkpt lat="48.48987" lon="2.41392">
        <ele>139.53</ele>
        <time>2014-03-05T10:21:22Z</time>
      </trkpt>
      <trkpt lat="48.48978" lon="2.41383">
        <ele>138.57</ele>
        <time>2014-03-05T10:21:28Z</time>
      </trkpt>
      <trkpt lat="48.48968" lon="2.41361">
        <ele>136.64</ele>
        <time>2014-03-05T10:21:40Z</time>
      </trkpt>
      <trkpt lat="48.48966" lon="2.41355">
        <ele>136.16</ele>
        <time>2014-03-05T10:21:42Z</time>
      </trkpt>
      <trkpt lat="48.48962" lon="2.4134">
        <ele>133.76</ele>
        <time>2014-03-05T10:21:48Z</time>
      </trkpt>
      <trkpt lat="48.4896" lon="2.4132">
        <ele>128.47</ele>
        <time>2014-03-05T10:21:57Z</time>
      </trkpt>
      <trkpt lat="48.48963" lon="2.41295">
        <ele>122.71</ele>
        <time>2014-03-05T10:22:10Z</time>
      </trkpt>
      <trkpt lat="48.48964" lon="2.41283">
        <ele>120.78</ele>
        <time>2014-03-05T10:22:16Z</time>
      </trkpt>
      <trkpt lat="48.48967" lon="2.41262">
        <ele>117.9</ele>
        <time>2014-03-05T10:22:26Z</time>
      </trkpt>
      <trkpt lat="48.48967" lon="2.41257">
        <ele>117.42</ele>
        <time>2014-03-05T10:22:28Z</time>
      </trkpt>
      <trkpt lat="48.48972" lon="2.41238">
        <ele>116.46</ele>
        <time>2014-03-05T10:22:39Z</time>
      </trkpt>
      <trkpt lat="48.48973" lon="2.41235">
        <ele>116.46</ele>
        <time>2014-03-05T10:22:40Z</time>
      </trkpt>
      <trkpt lat="48.48977" lon="2.41226">
        <ele>114.53</ele>
        <time>2014-03-05T10:22:44Z</time>
      </trkpt>
      <trkpt lat="48.48979" lon="2.41217">
        <ele>112.61</ele>
        <time>2014-03-05T10:22:50Z</time>
      </trkpt>
      <trkpt lat="48.4898" lon="2.41211">
        <ele>110.69</ele>
        <time>2014-03-05T10:22:53Z</time>
      </trkpt>
      <trkpt lat="48.48989" lon="2.41197">
        <ele>104.92</ele>
        <time>2014-03-05T10:23:03Z</time>
      </trkpt>
      <trkpt lat="48.49013" lon="2.41181">
        <ele>101.56</ele>
        <time>2014-03-05T10:23:23Z</time>
      </trkpt>
      <trkpt lat="48.49041" lon="2.4118">
        <ele>106.36</ele>
        <time>2014-03-05T10:23:41Z</time>
      </trkpt>
      <trkpt lat="48.49062" lon="2.41185">
        <ele>110.69</ele>
        <time>2014-03-05T10:23:54Z</time>
      </trkpt>
      <trkpt lat="48.49064" lon="2.41185">
        <ele>110.69</ele>
        <time>2014-03-05T10:23:56Z</time>
      </trkpt>
      <trkpt lat="48.49069" lon="2.41186">
        <ele>109.73</ele>
        <time>2014-03-05T10:24:01Z</time>
      </trkpt>
      <trkpt lat="48.4907" lon="2.41183">
        <ele>112.13</ele>
        <time>2014-03-05T10:24:14Z</time>
      </trkpt>
      <trkpt lat="48.49069" lon="2.41175">
        <ele>112.13</ele>
        <time>2014-03-05T10:24:18Z</time>
      </trkpt>
      <trkpt lat="48.49067" lon="2.41169">
        <ele>113.09</ele>
        <time>2014-03-05T10:24:21Z</time>
      </trkpt>
      <trkpt lat="48.49066" lon="2.41158">
        <ele>113.09</ele>
        <time>2014-03-05T10:24:25Z</time>
      </trkpt>
      <trkpt lat="48.49067" lon="2.41144">
        <ele>112.13</ele>
        <time>2014-03-05T10:24:32Z</time>
      </trkpt>
      <trkpt lat="48.49066" lon="2.41137">
        <ele>112.13</ele>
        <time>2014-03-05T10:24:38Z</time>
      </trkpt>
      <trkpt lat="48.49069" lon="2.41109">
        <ele>111.65</ele>
        <time>2014-03-05T10:24:50Z</time>
      </trkpt>
      <trkpt lat="48.49072" lon="2.41099">
        <ele>112.13</ele>
        <time>2014-03-05T10:24:56Z</time>
      </trkpt>
      <trkpt lat="48.49074" lon="2.41081">
        <ele>111.17</ele>
        <time>2014-03-05T10:25:06Z</time>
      </trkpt>
      <trkpt lat="48.49074" lon="2.41066">
        <ele>109.25</ele>
        <time>2014-03-05T10:25:14Z</time>
      </trkpt>
      <trkpt lat="48.49076" lon="2.41031">
        <ele>107.32</ele>
        <time>2014-03-05T10:25:31Z</time>
      </trkpt>
      <trkpt lat="48.49078" lon="2.40998">
        <ele>104.92</ele>
        <time>2014-03-05T10:25:48Z</time>
      </trkpt>
      <trkpt lat="48.49083" lon="2.40967">
        <ele>106.36</ele>
        <time>2014-03-05T10:26:02Z</time>
      </trkpt>
      <trkpt lat="48.49086" lon="2.40936">
        <ele>104.92</ele>
        <time>2014-03-05T10:26:19Z</time>
      </trkpt>
      <trkpt lat="48.49093" lon="2.40897">
        <ele>100.11</ele>
        <time>2014-03-05T10:26:38Z</time>
      </trkpt>
      <trkpt lat="48.49096" lon="2.40878">
        <ele>99.15</ele>
        <time>2014-03-05T10:26:47Z</time>
      </trkpt>
      <trkpt lat="48.49097" lon="2.40841">
        <ele>97.23</ele>
        <time>2014-03-05T10:27:06Z</time>
      </trkpt>
      <trkpt lat="48.49103" lon="2.4081">
        <ele>97.23</ele>
        <time>2014-03-05T10:27:23Z</time>
      </trkpt>
      <trkpt lat="48.49114" lon="2.40778">
        <ele>99.63</ele>
        <time>2014-03-05T10:27:42Z</time>
      </trkpt>
      <trkpt lat="48.49124" lon="2.40762">
        <ele>100.11</ele>
        <time>2014-03-05T10:27:58Z</time>
      </trkpt>
      <trkpt lat="48.49133" lon="2.40732">
        <ele>103</ele>
        <time>2014-03-05T10:28:14Z</time>
      </trkpt>
      <trkpt lat="48.49142" lon="2.40703">
        <ele>105.88</ele>
        <time>2014-03-05T10:28:32Z</time>
      </trkpt>
      <trkpt lat="48.49147" lon="2.40677">
        <ele>107.32</ele>
        <time>2014-03-05T10:28:49Z</time>
      </trkpt>
      <trkpt lat="48.4915" lon="2.40646">
        <ele>106.84</ele>
        <time>2014-03-05T10:29:07Z</time>
      </trkpt>
      <trkpt lat="48.49152" lon="2.40624">
        <ele>104.44</ele>
        <time>2014-03-05T10:29:25Z</time>
      </trkpt>
      <trkpt lat="48.49159" lon="2.40583">
        <ele>105.88</ele>
        <time>2014-03-05T10:29:42Z</time>
      </trkpt>
      <trkpt lat="48.49161" lon="2.40545">
        <ele>107.81</ele>
        <time>2014-03-05T10:30:00Z</time>
      </trkpt>
      <trkpt lat="48.49165" lon="2.40501">
        <ele>108.77</ele>
        <time>2014-03-05T10:30:19Z</time>
      </trkpt>
      <trkpt lat="48.49167" lon="2.40473">
        <ele>105.4</ele>
        <time>2014-03-05T10:30:33Z</time>
      </trkpt>
      <trkpt lat="48.49176" lon="2.40437">
        <ele>102.04</ele>
        <time>2014-03-05T10:30:51Z</time>
      </trkpt>
      <trkpt lat="48.49184" lon="2.40408">
        <ele>99.63</ele>
        <time>2014-03-05T10:31:07Z</time>
      </trkpt>
      <trkpt lat="48.49191" lon="2.40381">
        <ele>95.31</ele>
        <time>2014-03-05T10:31:22Z</time>
      </trkpt>
      <trkpt lat="48.49196" lon="2.4035">
        <ele>90.98</ele>
        <time>2014-03-05T10:31:38Z</time>
      </trkpt>
      <trkpt lat="48.49201" lon="2.4032">
        <ele>86.66</ele>
        <time>2014-03-05T10:31:54Z</time>
      </trkpt>
      <trkpt lat="48.49207" lon="2.40297">
        <ele>85.69</ele>
        <time>2014-03-05T10:32:05Z</time>
      </trkpt>
      <trkpt lat="48.4922" lon="2.40264">
        <ele>89.06</ele>
        <time>2014-03-05T10:32:23Z</time>
      </trkpt>
      <trkpt lat="48.4923" lon="2.40231">
        <ele>87.14</ele>
        <time>2014-03-05T10:32:40Z</time>
      </trkpt>
      <trkpt lat="48.49234" lon="2.40219">
        <ele>85.21</ele>
        <time>2014-03-05T10:32:47Z</time>
      </trkpt>
      <trkpt lat="48.49244" lon="2.40193">
        <ele>84.73</ele>
        <time>2014-03-05T10:33:02Z</time>
      </trkpt>
      <trkpt lat="48.49255" lon="2.40159">
        <ele>84.73</ele>
        <time>2014-03-05T10:33:20Z</time>
      </trkpt>
      <trkpt lat="48.49266" lon="2.40109">
        <ele>84.25</ele>
        <time>2014-03-05T10:33:44Z</time>
      </trkpt>
      <trkpt lat="48.4927" lon="2.40092">
        <ele>83.29</ele>
        <time>2014-03-05T10:33:54Z</time>
      </trkpt>
      <trkpt lat="48.49271" lon="2.40087">
        <ele>82.81</ele>
        <time>2014-03-05T10:33:57Z</time>
      </trkpt>
      <trkpt lat="48.49275" lon="2.40068">
        <ele>81.85</ele>
        <time>2014-03-05T10:34:09Z</time>
      </trkpt>
      <trkpt lat="48.49275" lon="2.40066">
        <ele>81.85</ele>
        <time>2014-03-05T10:34:10Z</time>
      </trkpt>
      <trkpt lat="48.4928" lon="2.40037">
        <ele>82.33</ele>
        <time>2014-03-05T10:34:23Z</time>
      </trkpt>
      <trkpt lat="48.4928" lon="2.40026">
        <ele>81.85</ele>
        <time>2014-03-05T10:34:30Z</time>
      </trkpt>
      <trkpt lat="48.49285" lon="2.39998">
        <ele>81.37</ele>
        <time>2014-03-05T10:34:41Z</time>
      </trkpt>
      <trkpt lat="48.49288" lon="2.3997">
        <ele>82.81</ele>
        <time>2014-03-05T10:34:54Z</time>
      </trkpt>
      <trkpt lat="48.49293" lon="2.39946">
        <ele>83.29</ele>
        <time>2014-03-05T10:35:04Z</time>
      </trkpt>
      <trkpt lat="48.49294" lon="2.39922">
        <ele>82.33</ele>
        <time>2014-03-05T10:35:16Z</time>
      </trkpt>
      <trkpt lat="48.49296" lon="2.39899">
        <ele>80.41</ele>
        <time>2014-03-05T10:35:30Z</time>
      </trkpt>
      <trkpt lat="48.49302" lon="2.39875">
        <ele>80.89</ele>
        <time>2014-03-05T10:35:41Z</time>
      </trkpt>
      <trkpt lat="48.49305" lon="2.39862">
        <ele>81.85</ele>
        <time>2014-03-05T10:35:49Z</time>
      </trkpt>
      <trkpt lat="48.49309" lon="2.39835">
        <ele>81.37</ele>
        <time>2014-03-05T10:36:02Z</time>
      </trkpt>
      <trkpt lat="48.4931" lon="2.39832">
        <ele>81.37</ele>
        <time>2014-03-05T10:36:05Z</time>
      </trkpt>
      <trkpt lat="48.49314" lon="2.39809">
        <ele>82.81</ele>
        <time>2014-03-05T10:36:15Z</time>
      </trkpt>
      <trkpt lat="48.49316" lon="2.39783">
        <ele>81.37</ele>
        <time>2014-03-05T10:36:25Z</time>
      </trkpt>
      <trkpt lat="48.4932" lon="2.39749">
        <ele>80.89</ele>
        <time>2014-03-05T10:36:41Z</time>
      </trkpt>
      <trkpt lat="48.49322" lon="2.39733">
        <ele>78.97</ele>
        <time>2014-03-05T10:36:50Z</time>
      </trkpt>
      <trkpt lat="48.49327" lon="2.39718">
        <ele>77.52</ele>
        <time>2014-03-05T10:36:59Z</time>
      </trkpt>
      <trkpt lat="48.49342" lon="2.39715">
        <ele>76.08</ele>
        <time>2014-03-05T10:37:14Z</time>
      </trkpt>
      <trkpt lat="48.49358" lon="2.39726">
        <ele>76.56</ele>
        <time>2014-03-05T10:37:30Z</time>
      </trkpt>
      <trkpt lat="48.49377" lon="2.39732">
        <ele>78</ele>
        <time>2014-03-05T10:37:45Z</time>
      </trkpt>
      <trkpt lat="48.49395" lon="2.39733">
        <ele>78.48</ele>
        <time>2014-03-05T10:37:59Z</time>
      </trkpt>
      <trkpt lat="48.49415" lon="2.3974">
        <ele>78.48</ele>
        <time>2014-03-05T10:38:15Z</time>
      </trkpt>
      <trkpt lat="48.49433" lon="2.39738">
        <ele>81.37</ele>
        <time>2014-03-05T10:38:28Z</time>
      </trkpt>
      <trkpt lat="48.49453" lon="2.39737">
        <ele>82.81</ele>
        <time>2014-03-05T10:38:44Z</time>
      </trkpt>
      <trkpt lat="48.49469" lon="2.39737">
        <ele>83.29</ele>
        <time>2014-03-05T10:38:58Z</time>
      </trkpt>
      <trkpt lat="48.49489" lon="2.39741">
        <ele>84.25</ele>
        <time>2014-03-05T10:39:10Z</time>
      </trkpt>
      <trkpt lat="48.49494" lon="2.39743">
        <ele>85.69</ele>
        <time>2014-03-05T10:39:13Z</time>
      </trkpt>
      <trkpt lat="48.49514" lon="2.39754">
        <ele>89.06</ele>
        <time>2014-03-05T10:39:28Z</time>
      </trkpt>
      <trkpt lat="48.49526" lon="2.39759">
        <ele>89.06</ele>
        <time>2014-03-05T10:39:41Z</time>
      </trkpt>
      <trkpt lat="48.49526" lon="2.39759">
        <ele>89.54</ele>
        <time>2014-03-05T10:39:45Z</time>
      </trkpt>
      <trkpt lat="48.49528" lon="2.39751">
        <ele>88.1</ele>
        <time>2014-03-05T10:39:51Z</time>
      </trkpt>
      <trkpt lat="48.49532" lon="2.39723">
        <ele>82.33</ele>
        <time>2014-03-05T10:40:06Z</time>
      </trkpt>
      <trkpt lat="48.49537" lon="2.39708">
        <ele>82.81</ele>
        <time>2014-03-05T10:40:14Z</time>
      </trkpt>
      <trkpt lat="48.49539" lon="2.39691">
        <ele>81.37</ele>
        <time>2014-03-05T10:40:24Z</time>
      </trkpt>
      <trkpt lat="48.4955" lon="2.3966">
        <ele>81.37</ele>
        <time>2014-03-05T10:40:39Z</time>
      </trkpt>
      <trkpt lat="48.49551" lon="2.39654">
        <ele>81.37</ele>
        <time>2014-03-05T10:40:43Z</time>
      </trkpt>
      <trkpt lat="48.49555" lon="2.39636">
        <ele>80.41</ele>
        <time>2014-03-05T10:40:51Z</time>
      </trkpt>
      <trkpt lat="48.4956" lon="2.39594">
        <ele>81.85</ele>
        <time>2014-03-05T10:41:07Z</time>
      </trkpt>
      <trkpt lat="48.49564" lon="2.39565">
        <ele>81.85</ele>
        <time>2014-03-05T10:41:21Z</time>
      </trkpt>
      <trkpt lat="48.49569" lon="2.39541">
        <ele>82.81</ele>
        <time>2014-03-05T10:41:44Z</time>
      </trkpt>
      <trkpt lat="48.49573" lon="2.39517">
        <ele>83.77</ele>
        <time>2014-03-05T10:41:58Z</time>
      </trkpt>
      <trkpt lat="48.49578" lon="2.39473">
        <ele>84.73</ele>
        <time>2014-03-05T10:42:19Z</time>
      </trkpt>
      <trkpt lat="48.49582" lon="2.39453">
        <ele>81.85</ele>
        <time>2014-03-05T10:42:30Z</time>
      </trkpt>
      <trkpt lat="48.49587" lon="2.39426">
        <ele>81.85</ele>
        <time>2014-03-05T10:42:42Z</time>
      </trkpt>
      <trkpt lat="48.4959" lon="2.39396">
        <ele>82.81</ele>
        <time>2014-03-05T10:42:58Z</time>
      </trkpt>
      <trkpt lat="48.49594" lon="2.39366">
        <ele>82.33</ele>
        <time>2014-03-05T10:43:12Z</time>
      </trkpt>
      <trkpt lat="48.49599" lon="2.39335">
        <ele>83.77</ele>
        <time>2014-03-05T10:43:26Z</time>
      </trkpt>
      <trkpt lat="48.49608" lon="2.39305">
        <ele>84.73</ele>
        <time>2014-03-05T10:43:43Z</time>
      </trkpt>
      <trkpt lat="48.49619" lon="2.39286">
        <ele>84.25</ele>
        <time>2014-03-05T10:43:57Z</time>
      </trkpt>
      <trkpt lat="48.49631" lon="2.39265">
        <ele>83.29</ele>
        <time>2014-03-05T10:44:09Z</time>
      </trkpt>
      <trkpt lat="48.49644" lon="2.39244">
        <ele>82.33</ele>
        <time>2014-03-05T10:44:21Z</time>
      </trkpt>
      <trkpt lat="48.49654" lon="2.39221">
        <ele>82.33</ele>
        <time>2014-03-05T10:44:34Z</time>
      </trkpt>
      <trkpt lat="48.49655" lon="2.39217">
        <ele>83.77</ele>
        <time>2014-03-05T10:44:38Z</time>
      </trkpt>
      <trkpt lat="48.49665" lon="2.39192">
        <ele>83.29</ele>
        <time>2014-03-05T10:44:51Z</time>
      </trkpt>
      <trkpt lat="48.49676" lon="2.39169">
        <ele>82.33</ele>
        <time>2014-03-05T10:45:03Z</time>
      </trkpt>
      <trkpt lat="48.49687" lon="2.39145">
        <ele>81.85</ele>
        <time>2014-03-05T10:45:17Z</time>
      </trkpt>
      <trkpt lat="48.4969" lon="2.39141">
        <ele>81.85</ele>
        <time>2014-03-05T10:45:20Z</time>
      </trkpt>
      <trkpt lat="48.49697" lon="2.39129">
        <ele>81.37</ele>
        <time>2014-03-05T10:45:26Z</time>
      </trkpt>
      <trkpt lat="48.49703" lon="2.39104">
        <ele>80.89</ele>
        <time>2014-03-05T10:45:40Z</time>
      </trkpt>
      <trkpt lat="48.49711" lon="2.39069">
        <ele>79.93</ele>
        <time>2014-03-05T10:46:03Z</time>
      </trkpt>
      <trkpt lat="48.49718" lon="2.39042">
        <ele>79.93</ele>
        <time>2014-03-05T10:46:24Z</time>
      </trkpt>
      <trkpt lat="48.49732" lon="2.39003">
        <ele>79.93</ele>
        <time>2014-03-05T10:46:44Z</time>
      </trkpt>
      <trkpt lat="48.49742" lon="2.38965">
        <ele>76.56</ele>
        <time>2014-03-05T10:47:07Z</time>
      </trkpt>
      <trkpt lat="48.49751" lon="2.38943">
        <ele>76.56</ele>
        <time>2014-03-05T10:47:22Z</time>
      </trkpt>
      <trkpt lat="48.49762" lon="2.38902">
        <ele>74.16</ele>
        <time>2014-03-05T10:47:42Z</time>
      </trkpt>
      <trkpt lat="48.49765" lon="2.38896">
        <ele>73.2</ele>
        <time>2014-03-05T10:47:58Z</time>
      </trkpt>
      <trkpt lat="48.49779" lon="2.38857">
        <ele>74.16</ele>
        <time>2014-03-05T10:48:19Z</time>
      </trkpt>
      <trkpt lat="48.49788" lon="2.38831">
        <ele>73.68</ele>
        <time>2014-03-05T10:48:31Z</time>
      </trkpt>
      <trkpt lat="48.49799" lon="2.38804">
        <ele>74.64</ele>
        <time>2014-03-05T10:48:45Z</time>
      </trkpt>
      <trkpt lat="48.49808" lon="2.38776">
        <ele>74.16</ele>
        <time>2014-03-05T10:49:00Z</time>
      </trkpt>
      <trkpt lat="48.49816" lon="2.38751">
        <ele>73.2</ele>
        <time>2014-03-05T10:49:12Z</time>
      </trkpt>
      <trkpt lat="48.49822" lon="2.38727">
        <ele>72.72</ele>
        <time>2014-03-05T10:49:25Z</time>
      </trkpt>
      <trkpt lat="48.49831" lon="2.38701">
        <ele>72.24</ele>
        <time>2014-03-05T10:49:38Z</time>
      </trkpt>
      <trkpt lat="48.4984" lon="2.38675">
        <ele>71.27</ele>
        <time>2014-03-05T10:49:52Z</time>
      </trkpt>
      <trkpt lat="48.49851" lon="2.38649">
        <ele>71.27</ele>
        <time>2014-03-05T10:50:05Z</time>
      </trkpt>
      <trkpt lat="48.49851" lon="2.38645">
        <ele>70.79</ele>
        <time>2014-03-05T10:50:08Z</time>
      </trkpt>
      <trkpt lat="48.49854" lon="2.38632">
        <ele>70.79</ele>
        <time>2014-03-05T10:50:14Z</time>
      </trkpt>
      <trkpt lat="48.49865" lon="2.386">
        <ele>70.31</ele>
        <time>2014-03-05T10:50:31Z</time>
      </trkpt>
      <trkpt lat="48.49875" lon="2.38571">
        <ele>70.31</ele>
        <time>2014-03-05T10:50:46Z</time>
      </trkpt>
      <trkpt lat="48.49886" lon="2.38539">
        <ele>72.24</ele>
        <time>2014-03-05T10:51:02Z</time>
      </trkpt>
      <trkpt lat="48.49894" lon="2.38514">
        <ele>73.2</ele>
        <time>2014-03-05T10:51:17Z</time>
      </trkpt>
      <trkpt lat="48.49904" lon="2.38488">
        <ele>74.16</ele>
        <time>2014-03-05T10:51:32Z</time>
      </trkpt>
      <trkpt lat="48.49904" lon="2.38486">
        <ele>74.16</ele>
        <time>2014-03-05T10:51:33Z</time>
      </trkpt>
      <trkpt lat="48.49904" lon="2.38482">
        <ele>74.16</ele>
        <time>2014-03-05T10:51:36Z</time>
      </trkpt>
      <trkpt lat="48.49906" lon="2.38473">
        <ele>74.16</ele>
        <time>2014-03-05T10:51:40Z</time>
      </trkpt>
      <trkpt lat="48.49917" lon="2.38444">
        <ele>74.64</ele>
        <time>2014-03-05T10:51:56Z</time>
      </trkpt>
      <trkpt lat="48.49927" lon="2.38417">
        <ele>74.64</ele>
        <time>2014-03-05T10:52:09Z</time>
      </trkpt>
      <trkpt lat="48.49934" lon="2.38388">
        <ele>74.16</ele>
        <time>2014-03-05T10:52:24Z</time>
      </trkpt>
      <trkpt lat="48.49943" lon="2.38358">
        <ele>75.12</ele>
        <time>2014-03-05T10:52:40Z</time>
      </trkpt>
      <trkpt lat="48.49955" lon="2.38326">
        <ele>74.64</ele>
        <time>2014-03-05T10:52:57Z</time>
      </trkpt>
      <trkpt lat="48.49966" lon="2.38293">
        <ele>75.12</ele>
        <time>2014-03-05T10:53:15Z</time>
      </trkpt>
      <trkpt lat="48.49974" lon="2.38265">
        <ele>75.6</ele>
        <time>2014-03-05T10:53:30Z</time>
      </trkpt>
      <trkpt lat="48.49986" lon="2.38229">
        <ele>76.08</ele>
        <time>2014-03-05T10:53:49Z</time>
      </trkpt>
      <trkpt lat="48.49997" lon="2.38194">
        <ele>76.56</ele>
        <time>2014-03-05T10:54:08Z</time>
      </trkpt>
      <trkpt lat="48.50007" lon="2.3816">
        <ele>77.04</ele>
        <time>2014-03-05T10:54:26Z</time>
      </trkpt>
      <trkpt lat="48.50019" lon="2.38124">
        <ele>78</ele>
        <time>2014-03-05T10:54:45Z</time>
      </trkpt>
      <trkpt lat="48.50029" lon="2.38094">
        <ele>78</ele>
        <time>2014-03-05T10:55:01Z</time>
      </trkpt>
      <trkpt lat="48.50032" lon="2.38077">
        <ele>78.97</ele>
        <time>2014-03-05T10:55:09Z</time>
      </trkpt>
      <trkpt lat="48.50043" lon="2.38045">
        <ele>79.93</ele>
        <time>2014-03-05T10:55:25Z</time>
      </trkpt>
      <trkpt lat="48.50051" lon="2.38016">
        <ele>80.89</ele>
        <time>2014-03-05T10:55:40Z</time>
      </trkpt>
      <trkpt lat="48.50062" lon="2.37982">
        <ele>81.37</ele>
        <time>2014-03-05T10:55:58Z</time>
      </trkpt>
      <trkpt lat="48.50073" lon="2.37951">
        <ele>80.89</ele>
        <time>2014-03-05T10:56:14Z</time>
      </trkpt>
      <trkpt lat="48.50084" lon="2.37918">
        <ele>78.48</ele>
        <time>2014-03-05T10:56:31Z</time>
      </trkpt>
      <trkpt lat="48.50091" lon="2.37887">
        <ele>78.48</ele>
        <time>2014-03-05T10:56:46Z</time>
      </trkpt>
      <trkpt lat="48.50099" lon="2.37852">
        <ele>81.37</ele>
        <time>2014-03-05T10:57:02Z</time>
      </trkpt>
      <trkpt lat="48.50102" lon="2.37837">
        <ele>82.81</ele>
        <time>2014-03-05T10:57:09Z</time>
      </trkpt>
      <trkpt lat="48.50105" lon="2.37829">
        <ele>82.81</ele>
        <time>2014-03-05T10:57:13Z</time>
      </trkpt>
      <trkpt lat="48.50107" lon="2.37823">
        <ele>84.25</ele>
        <time>2014-03-05T10:57:16Z</time>
      </trkpt>
      <trkpt lat="48.50109" lon="2.3782">
        <ele>84.73</ele>
        <time>2014-03-05T10:57:18Z</time>
      </trkpt>
      <trkpt lat="48.50124" lon="2.37795">
        <ele>83.77</ele>
        <time>2014-03-05T10:57:34Z</time>
      </trkpt>
      <trkpt lat="48.50139" lon="2.37771">
        <ele>83.29</ele>
        <time>2014-03-05T10:57:50Z</time>
      </trkpt>
      <trkpt lat="48.50152" lon="2.37752">
        <ele>80.89</ele>
        <time>2014-03-05T10:58:08Z</time>
      </trkpt>
      <trkpt lat="48.50162" lon="2.3774">
        <ele>79.45</ele>
        <time>2014-03-05T10:58:25Z</time>
      </trkpt>
      <trkpt lat="48.50166" lon="2.37734">
        <ele>79.93</ele>
        <time>2014-03-05T10:58:29Z</time>
      </trkpt>
      <trkpt lat="48.50178" lon="2.37716">
        <ele>80.41</ele>
        <time>2014-03-05T10:58:40Z</time>
      </trkpt>
      <trkpt lat="48.50192" lon="2.37683">
        <ele>80.41</ele>
        <time>2014-03-05T10:58:59Z</time>
      </trkpt>
      <trkpt lat="48.50203" lon="2.37655">
        <ele>78.97</ele>
        <time>2014-03-05T10:59:14Z</time>
      </trkpt>
      <trkpt lat="48.50219" lon="2.37619">
        <ele>78.48</ele>
        <time>2014-03-05T10:59:34Z</time>
      </trkpt>
      <trkpt lat="48.50233" lon="2.37594">
        <ele>78.97</ele>
        <time>2014-03-05T10:59:49Z</time>
      </trkpt>
      <trkpt lat="48.5025" lon="2.37563">
        <ele>78</ele>
        <time>2014-03-05T11:00:08Z</time>
      </trkpt>
      <trkpt lat="48.50267" lon="2.37531">
        <ele>77.04</ele>
        <time>2014-03-05T11:00:27Z</time>
      </trkpt>
      <trkpt lat="48.50284" lon="2.37492">
        <ele>75.6</ele>
        <time>2014-03-05T11:00:49Z</time>
      </trkpt>
      <trkpt lat="48.50298" lon="2.37455">
        <ele>74.64</ele>
        <time>2014-03-05T11:01:09Z</time>
      </trkpt>
      <trkpt lat="48.50311" lon="2.37422">
        <ele>75.12</ele>
        <time>2014-03-05T11:01:27Z</time>
      </trkpt>
      <trkpt lat="48.50324" lon="2.37392">
        <ele>75.6</ele>
        <time>2014-03-05T11:01:44Z</time>
      </trkpt>
      <trkpt lat="48.50335" lon="2.3737">
        <ele>75.6</ele>
        <time>2014-03-05T11:01:57Z</time>
      </trkpt>
      <trkpt lat="48.50345" lon="2.37352">
        <ele>74.64</ele>
        <time>2014-03-05T11:02:10Z</time>
      </trkpt>
      <trkpt lat="48.50358" lon="2.37323">
        <ele>75.12</ele>
        <time>2014-03-05T11:02:24Z</time>
      </trkpt>
      <trkpt lat="48.50361" lon="2.37316">
        <ele>74.64</ele>
        <time>2014-03-05T11:02:29Z</time>
      </trkpt>
      <trkpt lat="48.50367" lon="2.37288">
        <ele>74.64</ele>
        <time>2014-03-05T11:02:43Z</time>
      </trkpt>
      <trkpt lat="48.50376" lon="2.37248">
        <ele>72.72</ele>
        <time>2014-03-05T11:03:04Z</time>
      </trkpt>
      <trkpt lat="48.50384" lon="2.37218">
        <ele>73.68</ele>
        <time>2014-03-05T11:03:20Z</time>
      </trkpt>
      <trkpt lat="48.5039" lon="2.37192">
        <ele>74.16</ele>
        <time>2014-03-05T11:03:34Z</time>
      </trkpt>
      <trkpt lat="48.50397" lon="2.37161">
        <ele>73.68</ele>
        <time>2014-03-05T11:03:49Z</time>
      </trkpt>
      <trkpt lat="48.50398" lon="2.37158">
        <ele>73.2</ele>
        <time>2014-03-05T11:03:51Z</time>
      </trkpt>
      <trkpt lat="48.50418" lon="2.37157">
        <ele>72.24</ele>
        <time>2014-03-05T11:04:06Z</time>
      </trkpt>
      <trkpt lat="48.5044" lon="2.37163">
        <ele>70.79</ele>
        <time>2014-03-05T11:04:22Z</time>
      </trkpt>
      <trkpt lat="48.50465" lon="2.37168">
        <ele>70.31</ele>
        <time>2014-03-05T11:04:40Z</time>
      </trkpt>
      <trkpt lat="48.50488" lon="2.37173">
        <ele>69.83</ele>
        <time>2014-03-05T11:04:56Z</time>
      </trkpt>
      <trkpt lat="48.50505" lon="2.37177">
        <ele>69.35</ele>
        <time>2014-03-05T11:05:10Z</time>
      </trkpt>
      <trkpt lat="48.5053" lon="2.37182">
        <ele>69.35</ele>
        <time>2014-03-05T11:05:28Z</time>
      </trkpt>
      <trkpt lat="48.50558" lon="2.37185">
        <ele>69.83</ele>
        <time>2014-03-05T11:05:49Z</time>
      </trkpt>
      <trkpt lat="48.5059" lon="2.37188">
        <ele>69.35</ele>
        <time>2014-03-05T11:06:12Z</time>
      </trkpt>
      <trkpt lat="48.50616" lon="2.3719">
        <ele>68.87</ele>
        <time>2014-03-05T11:06:31Z</time>
      </trkpt>
      <trkpt lat="48.50619" lon="2.37191">
        <ele>68.87</ele>
        <time>2014-03-05T11:06:33Z</time>
      </trkpt>
      <trkpt lat="48.50644" lon="2.37199">
        <ele>68.87</ele>
        <time>2014-03-05T11:06:52Z</time>
      </trkpt>
      <trkpt lat="48.5067" lon="2.37205">
        <ele>67.43</ele>
        <time>2014-03-05T11:07:11Z</time>
      </trkpt>
      <trkpt lat="48.507" lon="2.37209">
        <ele>67.91</ele>
        <time>2014-03-05T11:07:33Z</time>
      </trkpt>
      <trkpt lat="48.50717" lon="2.37213">
        <ele>68.87</ele>
        <time>2014-03-05T11:07:45Z</time>
      </trkpt>
      <trkpt lat="48.50745" lon="2.37218">
        <ele>68.87</ele>
        <time>2014-03-05T11:08:05Z</time>
      </trkpt>
      <trkpt lat="48.50775" lon="2.37221">
        <ele>68.39</ele>
        <time>2014-03-05T11:08:27Z</time>
      </trkpt>
      <trkpt lat="48.508" lon="2.37225">
        <ele>68.39</ele>
        <time>2014-03-05T11:08:46Z</time>
      </trkpt>
      <trkpt lat="48.50825" lon="2.37228">
        <ele>68.39</ele>
        <time>2014-03-05T11:09:06Z</time>
      </trkpt>
      <trkpt lat="48.50848" lon="2.37233">
        <ele>67.91</ele>
        <time>2014-03-05T11:09:25Z</time>
      </trkpt>
      <trkpt lat="48.50877" lon="2.37238">
        <ele>68.39</ele>
        <time>2014-03-05T11:09:48Z</time>
      </trkpt>
      <trkpt lat="48.50901" lon="2.37242">
        <ele>68.39</ele>
        <time>2014-03-05T11:10:06Z</time>
      </trkpt>
      <trkpt lat="48.50929" lon="2.37248">
        <ele>68.39</ele>
        <time>2014-03-05T11:10:28Z</time>
      </trkpt>
      <trkpt lat="48.50954" lon="2.37252">
        <ele>69.35</ele>
        <time>2014-03-05T11:10:46Z</time>
      </trkpt>
      <trkpt lat="48.50981" lon="2.37255">
        <ele>69.83</ele>
        <time>2014-03-05T11:11:08Z</time>
      </trkpt>
      <trkpt lat="48.51009" lon="2.37254">
        <ele>71.76</ele>
        <time>2014-03-05T11:11:28Z</time>
      </trkpt>
      <trkpt lat="48.51019" lon="2.37254">
        <ele>72.72</ele>
        <time>2014-03-05T11:11:37Z</time>
      </trkpt>
      <trkpt lat="48.51016" lon="2.37254">
        <ele>73.2</ele>
        <time>2014-03-05T11:11:41Z</time>
      </trkpt>
      <trkpt lat="48.51023" lon="2.37254">
        <ele>73.2</ele>
        <time>2014-03-05T11:11:46Z</time>
      </trkpt>
      <trkpt lat="48.5105" lon="2.37254">
        <ele>73.2</ele>
        <time>2014-03-05T11:12:06Z</time>
      </trkpt>
      <trkpt lat="48.5107" lon="2.3726">
        <ele>73.68</ele>
        <time>2014-03-05T11:12:21Z</time>
      </trkpt>
      <trkpt lat="48.51082" lon="2.37264">
        <ele>73.2</ele>
        <time>2014-03-05T11:12:30Z</time>
      </trkpt>
      <trkpt lat="48.51102" lon="2.37271">
        <ele>73.2</ele>
        <time>2014-03-05T11:12:45Z</time>
      </trkpt>
      <trkpt lat="48.51125" lon="2.37275">
        <ele>72.24</ele>
        <time>2014-03-05T11:13:03Z</time>
      </trkpt>
      <trkpt lat="48.51148" lon="2.3728">
        <ele>70.79</ele>
        <time>2014-03-05T11:13:19Z</time>
      </trkpt>
      <trkpt lat="48.51149" lon="2.3728">
        <ele>70.79</ele>
        <time>2014-03-05T11:13:20Z</time>
      </trkpt>
      <trkpt lat="48.5117" lon="2.37287">
        <ele>68.39</ele>
        <time>2014-03-05T11:13:36Z</time>
      </trkpt>
      <trkpt lat="48.5118" lon="2.37287">
        <ele>67.43</ele>
        <time>2014-03-05T11:13:43Z</time>
      </trkpt>
      <trkpt lat="48.51193" lon="2.37288">
        <ele>66.95</ele>
        <time>2014-03-05T11:13:51Z</time>
      </trkpt>
      <trkpt lat="48.51215" lon="2.37284">
        <ele>68.39</ele>
        <time>2014-03-05T11:14:09Z</time>
      </trkpt>
      <trkpt lat="48.51235" lon="2.37269">
        <ele>69.35</ele>
        <time>2014-03-05T11:14:26Z</time>
      </trkpt>
      <trkpt lat="48.51258" lon="2.37261">
        <ele>70.31</ele>
        <time>2014-03-05T11:14:41Z</time>
      </trkpt>
      <trkpt lat="48.51282" lon="2.37261">
        <ele>70.79</ele>
        <time>2014-03-05T11:14:59Z</time>
      </trkpt>
      <trkpt lat="48.51305" lon="2.37258">
        <ele>69.83</ele>
        <time>2014-03-05T11:15:15Z</time>
      </trkpt>
      <trkpt lat="48.51316" lon="2.37258">
        <ele>69.83</ele>
        <time>2014-03-05T11:15:22Z</time>
      </trkpt>
      <trkpt lat="48.51325" lon="2.37259">
        <ele>68.87</ele>
        <time>2014-03-05T11:15:28Z</time>
      </trkpt>
      <trkpt lat="48.5134" lon="2.37262">
        <ele>68.39</ele>
        <time>2014-03-05T11:15:40Z</time>
      </trkpt>
      <trkpt lat="48.51357" lon="2.37262">
        <ele>65.03</ele>
        <time>2014-03-05T11:15:52Z</time>
      </trkpt>
      <trkpt lat="48.51363" lon="2.37263">
        <ele>65.03</ele>
        <time>2014-03-05T11:15:56Z</time>
      </trkpt>
      <trkpt lat="48.51381" lon="2.37265">
        <ele>65.03</ele>
        <time>2014-03-05T11:16:11Z</time>
      </trkpt>
      <trkpt lat="48.51404" lon="2.3727">
        <ele>67.43</ele>
        <time>2014-03-05T11:16:27Z</time>
      </trkpt>
      <trkpt lat="48.51427" lon="2.37274">
        <ele>65.99</ele>
        <time>2014-03-05T11:16:44Z</time>
      </trkpt>
      <trkpt lat="48.51439" lon="2.37275">
        <ele>66.47</ele>
        <time>2014-03-05T11:16:53Z</time>
      </trkpt>
      <trkpt lat="48.51466" lon="2.37285">
        <ele>65.51</ele>
        <time>2014-03-05T11:17:11Z</time>
      </trkpt>
      <trkpt lat="48.51485" lon="2.373">
        <ele>66.47</ele>
        <time>2014-03-05T11:17:27Z</time>
      </trkpt>
      <trkpt lat="48.51503" lon="2.3732">
        <ele>65.99</ele>
        <time>2014-03-05T11:17:44Z</time>
      </trkpt>
      <trkpt lat="48.51521" lon="2.37335">
        <ele>65.51</ele>
        <time>2014-03-05T11:17:59Z</time>
      </trkpt>
      <trkpt lat="48.51534" lon="2.37344">
        <ele>66.47</ele>
        <time>2014-03-05T11:18:13Z</time>
      </trkpt>
      <trkpt lat="48.51535" lon="2.37345">
        <ele>70.31</ele>
        <time>2014-03-05T11:18:31Z</time>
      </trkpt>
      <trkpt lat="48.51535" lon="2.37345">
        <ele>71.27</ele>
        <time>2014-03-05T11:19:02Z</time>
      </trkpt>
      <trkpt lat="48.51535" lon="2.37345">
        <ele>71.27</ele>
        <time>2014-03-05T11:19:08Z</time>
      </trkpt>
      <trkpt lat="48.51535" lon="2.37343">
        <ele>70.79</ele>
        <time>2014-03-05T11:19:18Z</time>
      </trkpt>
      <trkpt lat="48.51535" lon="2.37344">
        <ele>70.31</ele>
        <time>2014-03-05T11:19:35Z</time>
      </trkpt>
      <trkpt lat="48.51535" lon="2.37344">
        <ele>70.31</ele>
        <time>2014-03-05T11:19:39Z</time>
      </trkpt>
      <trkpt lat="48.51548" lon="2.37355">
        <ele>68.87</ele>
        <time>2014-03-05T11:19:52Z</time>
      </trkpt>
      <trkpt lat="48.51566" lon="2.37368">
        <ele>65.03</ele>
        <time>2014-03-05T11:20:07Z</time>
      </trkpt>
      <trkpt lat="48.51585" lon="2.3738">
        <ele>63.58</ele>
        <time>2014-03-05T11:20:23Z</time>
      </trkpt>
      <trkpt lat="48.51593" lon="2.37384">
        <ele>62.62</ele>
        <time>2014-03-05T11:20:36Z</time>
      </trkpt>
      <trkpt lat="48.51605" lon="2.37389">
        <ele>62.62</ele>
        <time>2014-03-05T11:20:56Z</time>
      </trkpt>
      <trkpt lat="48.5161" lon="2.37393">
        <ele>63.1</ele>
        <time>2014-03-05T11:21:00Z</time>
      </trkpt>
      <trkpt lat="48.5162" lon="2.374">
        <ele>62.14</ele>
        <time>2014-03-05T11:21:07Z</time>
      </trkpt>
      <trkpt lat="48.51644" lon="2.3741">
        <ele>65.03</ele>
        <time>2014-03-05T11:21:24Z</time>
      </trkpt>
      <trkpt lat="48.51663" lon="2.37421">
        <ele>65.99</ele>
        <time>2014-03-05T11:21:38Z</time>
      </trkpt>
      <trkpt lat="48.51679" lon="2.37431">
        <ele>65.99</ele>
        <time>2014-03-05T11:21:50Z</time>
      </trkpt>
      <trkpt lat="48.51696" lon="2.37445">
        <ele>66.95</ele>
        <time>2014-03-05T11:22:02Z</time>
      </trkpt>
      <trkpt lat="48.51708" lon="2.37453">
        <ele>66.47</ele>
        <time>2014-03-05T11:22:14Z</time>
      </trkpt>
      <trkpt lat="48.51712" lon="2.37455">
        <ele>66.95</ele>
        <time>2014-03-05T11:22:17Z</time>
      </trkpt>
      <trkpt lat="48.51715" lon="2.3746">
        <ele>67.91</ele>
        <time>2014-03-05T11:22:21Z</time>
      </trkpt>
      <trkpt lat="48.51715" lon="2.37462">
        <ele>68.39</ele>
        <time>2014-03-05T11:22:38Z</time>
      </trkpt>
      <trkpt lat="48.51721" lon="2.37473">
        <ele>67.91</ele>
        <time>2014-03-05T11:22:55Z</time>
      </trkpt>
      <trkpt lat="48.51733" lon="2.37495">
        <ele>65.51</ele>
        <time>2014-03-05T11:23:08Z</time>
      </trkpt>
      <trkpt lat="48.51746" lon="2.3752">
        <ele>63.58</ele>
        <time>2014-03-05T11:23:22Z</time>
      </trkpt>
      <trkpt lat="48.5175" lon="2.37527">
        <ele>63.58</ele>
        <time>2014-03-05T11:23:27Z</time>
      </trkpt>
      <trkpt lat="48.51764" lon="2.37555">
        <ele>65.99</ele>
        <time>2014-03-05T11:23:42Z</time>
      </trkpt>
      <trkpt lat="48.51773" lon="2.37564">
        <ele>65.03</ele>
        <time>2014-03-05T11:23:52Z</time>
      </trkpt>
      <trkpt lat="48.51781" lon="2.37567">
        <ele>64.07</ele>
        <time>2014-03-05T11:24:00Z</time>
      </trkpt>
      <trkpt lat="48.51783" lon="2.37586">
        <ele>60.22</ele>
        <time>2014-03-05T11:24:31Z</time>
      </trkpt>
      <trkpt lat="48.51784" lon="2.37625">
        <ele>64.07</ele>
        <time>2014-03-05T11:24:49Z</time>
      </trkpt>
      <trkpt lat="48.51782" lon="2.37659">
        <ele>67.43</ele>
        <time>2014-03-05T11:25:06Z</time>
      </trkpt>
      <trkpt lat="48.51777" lon="2.37695">
        <ele>70.31</ele>
        <time>2014-03-05T11:25:23Z</time>
      </trkpt>
      <trkpt lat="48.51773" lon="2.37726">
        <ele>70.79</ele>
        <time>2014-03-05T11:25:39Z</time>
      </trkpt>
      <trkpt lat="48.51767" lon="2.37764">
        <ele>70.31</ele>
        <time>2014-03-05T11:25:57Z</time>
      </trkpt>
      <trkpt lat="48.51762" lon="2.37796">
        <ele>70.79</ele>
        <time>2014-03-05T11:26:13Z</time>
      </trkpt>
      <trkpt lat="48.51769" lon="2.37813">
        <ele>70.79</ele>
        <time>2014-03-05T11:26:27Z</time>
      </trkpt>
      <trkpt lat="48.5177" lon="2.37813">
        <ele>70.79</ele>
        <time>2014-03-05T11:26:28Z</time>
      </trkpt>
      <trkpt lat="48.51782" lon="2.37817">
        <ele>68.87</ele>
        <time>2014-03-05T11:26:40Z</time>
      </trkpt>
      <trkpt lat="48.51794" lon="2.37821">
        <ele>68.87</ele>
        <time>2014-03-05T11:26:51Z</time>
      </trkpt>
      <trkpt lat="48.51801" lon="2.37824">
        <ele>68.39</ele>
        <time>2014-03-05T11:27:02Z</time>
      </trkpt>
      <trkpt lat="48.51802" lon="2.37824">
        <ele>68.39</ele>
        <time>2014-03-05T11:27:03Z</time>
      </trkpt>
      <trkpt lat="48.5181" lon="2.37835">
        <ele>68.39</ele>
        <time>2014-03-05T11:27:11Z</time>
      </trkpt>
      <trkpt lat="48.51817" lon="2.37841">
        <ele>67.91</ele>
        <time>2014-03-05T11:27:17Z</time>
      </trkpt>
      <trkpt lat="48.51819" lon="2.37847">
        <ele>68.39</ele>
        <time>2014-03-05T11:27:21Z</time>
      </trkpt>
      <trkpt lat="48.51821" lon="2.37849">
        <ele>68.39</ele>
        <time>2014-03-05T11:27:23Z</time>
      </trkpt>
      <trkpt lat="48.51837" lon="2.37832">
        <ele>67.43</ele>
        <time>2014-03-05T11:27:39Z</time>
      </trkpt>
      <trkpt lat="48.51854" lon="2.37813">
        <ele>67.43</ele>
        <time>2014-03-05T11:27:53Z</time>
      </trkpt>
      <trkpt lat="48.51875" lon="2.3778">
        <ele>66.95</ele>
        <time>2014-03-05T11:28:13Z</time>
      </trkpt>
      <trkpt lat="48.51894" lon="2.37747">
        <ele>65.51</ele>
        <time>2014-03-05T11:28:31Z</time>
      </trkpt>
      <trkpt lat="48.51907" lon="2.37717">
        <ele>65.51</ele>
        <time>2014-03-05T11:28:47Z</time>
      </trkpt>
      <trkpt lat="48.51919" lon="2.37682">
        <ele>65.99</ele>
        <time>2014-03-05T11:29:05Z</time>
      </trkpt>
      <trkpt lat="48.5193" lon="2.37643">
        <ele>65.51</ele>
        <time>2014-03-05T11:29:23Z</time>
      </trkpt>
      <trkpt lat="48.51929" lon="2.37636">
        <ele>65.99</ele>
        <time>2014-03-05T11:29:27Z</time>
      </trkpt>
      <trkpt lat="48.51929" lon="2.37626">
        <ele>65.51</ele>
        <time>2014-03-05T11:29:32Z</time>
      </trkpt>
      <trkpt lat="48.5193" lon="2.37621">
        <ele>65.03</ele>
        <time>2014-03-05T11:29:34Z</time>
      </trkpt>
      <trkpt lat="48.51931" lon="2.37613">
        <ele>64.55</ele>
        <time>2014-03-05T11:29:38Z</time>
      </trkpt>
      <trkpt lat="48.51932" lon="2.37606">
        <ele>64.55</ele>
        <time>2014-03-05T11:29:42Z</time>
      </trkpt>
      <trkpt lat="48.51931" lon="2.37581">
        <ele>64.07</ele>
        <time>2014-03-05T11:29:53Z</time>
      </trkpt>
      <trkpt lat="48.51933" lon="2.37551">
        <ele>57.82</ele>
        <time>2014-03-05T11:30:08Z</time>
      </trkpt>
      <trkpt lat="48.51939" lon="2.37527">
        <ele>49.16</ele>
        <time>2014-03-05T11:30:21Z</time>
      </trkpt>
      <trkpt lat="48.51945" lon="2.37499">
        <ele>44.84</ele>
        <time>2014-03-05T11:30:36Z</time>
      </trkpt>
      <trkpt lat="48.51962" lon="2.37469">
        <ele>49.16</ele>
        <time>2014-03-05T11:30:55Z</time>
      </trkpt>
      <trkpt lat="48.51964" lon="2.37454">
        <ele>54.93</ele>
        <time>2014-03-05T11:31:03Z</time>
      </trkpt>
      <trkpt lat="48.51964" lon="2.37443">
        <ele>56.37</ele>
        <time>2014-03-05T11:31:08Z</time>
      </trkpt>
      <trkpt lat="48.51954" lon="2.37418">
        <ele>61.18</ele>
        <time>2014-03-05T11:31:21Z</time>
      </trkpt>
      <trkpt lat="48.5194" lon="2.37379">
        <ele>62.62</ele>
        <time>2014-03-05T11:31:39Z</time>
      </trkpt>
      <trkpt lat="48.5193" lon="2.37346">
        <ele>63.1</ele>
        <time>2014-03-05T11:31:56Z</time>
      </trkpt>
      <trkpt lat="48.5192" lon="2.37313">
        <ele>62.62</ele>
        <time>2014-03-05T11:32:13Z</time>
      </trkpt>
      <trkpt lat="48.51913" lon="2.37288">
        <ele>63.58</ele>
        <time>2014-03-05T11:32:26Z</time>
      </trkpt>
      <trkpt lat="48.51905" lon="2.37263">
        <ele>62.62</ele>
        <time>2014-03-05T11:32:41Z</time>
      </trkpt>
      <trkpt lat="48.51898" lon="2.3724">
        <ele>62.62</ele>
        <time>2014-03-05T11:32:53Z</time>
      </trkpt>
      <trkpt lat="48.51887" lon="2.37209">
        <ele>61.18</ele>
        <time>2014-03-05T11:33:09Z</time>
      </trkpt>
      <trkpt lat="48.5188" lon="2.37175">
        <ele>60.22</ele>
        <time>2014-03-05T11:33:27Z</time>
      </trkpt>
      <trkpt lat="48.51874" lon="2.37152">
        <ele>59.74</ele>
        <time>2014-03-05T11:33:39Z</time>
      </trkpt>
      <trkpt lat="48.51871" lon="2.37143">
        <ele>59.26</ele>
        <time>2014-03-05T11:33:43Z</time>
      </trkpt>
      <trkpt lat="48.51861" lon="2.37105">
        <ele>60.22</ele>
        <time>2014-03-05T11:34:01Z</time>
      </trkpt>
      <trkpt lat="48.5185" lon="2.37061">
        <ele>59.74</ele>
        <time>2014-03-05T11:34:22Z</time>
      </trkpt>
      <trkpt lat="48.51844" lon="2.37032">
        <ele>62.14</ele>
        <time>2014-03-05T11:34:36Z</time>
      </trkpt>
      <trkpt lat="48.51841" lon="2.37022">
        <ele>61.66</ele>
        <time>2014-03-05T11:34:41Z</time>
      </trkpt>
      <trkpt lat="48.51832" lon="2.36982">
        <ele>61.66</ele>
        <time>2014-03-05T11:35:02Z</time>
      </trkpt>
      <trkpt lat="48.51821" lon="2.36932">
        <ele>60.7</ele>
        <time>2014-03-05T11:35:25Z</time>
      </trkpt>
      <trkpt lat="48.51833" lon="2.36918">
        <ele>59.26</ele>
        <time>2014-03-05T11:35:41Z</time>
      </trkpt>
      <trkpt lat="48.51842" lon="2.36912">
        <ele>59.74</ele>
        <time>2014-03-05T11:35:56Z</time>
      </trkpt>
      <trkpt lat="48.51849" lon="2.36911">
        <ele>60.22</ele>
        <time>2014-03-05T11:36:13Z</time>
      </trkpt>
      <trkpt lat="48.51864" lon="2.36905">
        <ele>61.18</ele>
        <time>2014-03-05T11:36:32Z</time>
      </trkpt>
      <trkpt lat="48.51885" lon="2.36898">
        <ele>63.1</ele>
        <time>2014-03-05T11:36:45Z</time>
      </trkpt>
      <trkpt lat="48.51904" lon="2.36892">
        <ele>63.58</ele>
        <time>2014-03-05T11:36:59Z</time>
      </trkpt>
      <trkpt lat="48.51924" lon="2.36887">
        <ele>62.62</ele>
        <time>2014-03-05T11:37:13Z</time>
      </trkpt>
      <trkpt lat="48.51947" lon="2.36878">
        <ele>61.66</ele>
        <time>2014-03-05T11:37:29Z</time>
      </trkpt>
      <trkpt lat="48.51969" lon="2.36872">
        <ele>60.7</ele>
        <time>2014-03-05T11:37:45Z</time>
      </trkpt>
      <trkpt lat="48.5199" lon="2.36868">
        <ele>59.26</ele>
        <time>2014-03-05T11:38:00Z</time>
      </trkpt>
      <trkpt lat="48.52017" lon="2.36861">
        <ele>57.34</ele>
        <time>2014-03-05T11:38:18Z</time>
      </trkpt>
      <trkpt lat="48.5204" lon="2.36855">
        <ele>56.37</ele>
        <time>2014-03-05T11:38:34Z</time>
      </trkpt>
      <trkpt lat="48.52064" lon="2.36849">
        <ele>57.34</ele>
        <time>2014-03-05T11:38:50Z</time>
      </trkpt>
      <trkpt lat="48.52087" lon="2.36841">
        <ele>57.34</ele>
        <time>2014-03-05T11:39:05Z</time>
      </trkpt>
      <trkpt lat="48.52095" lon="2.36839">
        <ele>57.34</ele>
        <time>2014-03-05T11:39:09Z</time>
      </trkpt>
      <trkpt lat="48.52119" lon="2.36835">
        <ele>60.22</ele>
        <time>2014-03-05T11:39:25Z</time>
      </trkpt>
      <trkpt lat="48.52142" lon="2.36824">
        <ele>60.22</ele>
        <time>2014-03-05T11:39:41Z</time>
      </trkpt>
      <trkpt lat="48.52163" lon="2.36805">
        <ele>62.14</ele>
        <time>2014-03-05T11:39:58Z</time>
      </trkpt>
      <trkpt lat="48.52177" lon="2.36782">
        <ele>61.66</ele>
        <time>2014-03-05T11:40:13Z</time>
      </trkpt>
      <trkpt lat="48.52191" lon="2.36755">
        <ele>61.18</ele>
        <time>2014-03-05T11:40:28Z</time>
      </trkpt>
      <trkpt lat="48.52212" lon="2.36721">
        <ele>62.14</ele>
        <time>2014-03-05T11:40:49Z</time>
      </trkpt>
      <trkpt lat="48.52224" lon="2.3669">
        <ele>63.58</ele>
        <time>2014-03-05T11:41:05Z</time>
      </trkpt>
      <trkpt lat="48.52237" lon="2.3666">
        <ele>63.1</ele>
        <time>2014-03-05T11:41:21Z</time>
      </trkpt>
      <trkpt lat="48.52248" lon="2.36628">
        <ele>62.62</ele>
        <time>2014-03-05T11:41:37Z</time>
      </trkpt>
      <trkpt lat="48.52258" lon="2.36587">
        <ele>63.1</ele>
        <time>2014-03-05T11:41:57Z</time>
      </trkpt>
      <trkpt lat="48.52268" lon="2.36554">
        <ele>62.14</ele>
        <time>2014-03-05T11:42:14Z</time>
      </trkpt>
      <trkpt lat="48.52276" lon="2.36521">
        <ele>63.1</ele>
        <time>2014-03-05T11:42:29Z</time>
      </trkpt>
      <trkpt lat="48.52276" lon="2.36492">
        <ele>62.62</ele>
        <time>2014-03-05T11:42:44Z</time>
      </trkpt>
      <trkpt lat="48.52278" lon="2.36461">
        <ele>63.1</ele>
        <time>2014-03-05T11:42:57Z</time>
      </trkpt>
      <trkpt lat="48.52285" lon="2.3643">
        <ele>65.03</ele>
        <time>2014-03-05T11:43:12Z</time>
      </trkpt>
      <trkpt lat="48.52298" lon="2.36415">
        <ele>68.87</ele>
        <time>2014-03-05T11:43:25Z</time>
      </trkpt>
      <trkpt lat="48.52318" lon="2.36408">
        <ele>72.72</ele>
        <time>2014-03-05T11:43:38Z</time>
      </trkpt>
      <trkpt lat="48.52341" lon="2.36399">
        <ele>72.24</ele>
        <time>2014-03-05T11:43:53Z</time>
      </trkpt>
      <trkpt lat="48.52365" lon="2.36387">
        <ele>74.16</ele>
        <time>2014-03-05T11:44:10Z</time>
      </trkpt>
      <trkpt lat="48.52391" lon="2.36378">
        <ele>73.2</ele>
        <time>2014-03-05T11:44:27Z</time>
      </trkpt>
      <trkpt lat="48.52412" lon="2.36372">
        <ele>71.27</ele>
        <time>2014-03-05T11:44:41Z</time>
      </trkpt>
      <trkpt lat="48.52436" lon="2.36363">
        <ele>72.24</ele>
        <time>2014-03-05T11:44:58Z</time>
      </trkpt>
      <trkpt lat="48.52458" lon="2.36357">
        <ele>70.31</ele>
        <time>2014-03-05T11:45:13Z</time>
      </trkpt>
      <trkpt lat="48.52468" lon="2.36358">
        <ele>68.87</ele>
        <time>2014-03-05T11:45:19Z</time>
      </trkpt>
      <trkpt lat="48.52476" lon="2.3636">
        <ele>69.35</ele>
        <time>2014-03-05T11:45:25Z</time>
      </trkpt>
      <trkpt lat="48.52484" lon="2.36362">
        <ele>69.35</ele>
        <time>2014-03-05T11:45:29Z</time>
      </trkpt>
      <trkpt lat="48.52488" lon="2.36362">
        <ele>69.83</ele>
        <time>2014-03-05T11:45:31Z</time>
      </trkpt>
      <trkpt lat="48.52511" lon="2.3637">
        <ele>69.83</ele>
        <time>2014-03-05T11:45:42Z</time>
      </trkpt>
      <trkpt lat="48.52515" lon="2.36371">
        <ele>69.83</ele>
        <time>2014-03-05T11:45:44Z</time>
      </trkpt>
      <trkpt lat="48.52537" lon="2.36375">
        <ele>76.56</ele>
        <time>2014-03-05T11:45:57Z</time>
      </trkpt>
      <trkpt lat="48.52547" lon="2.36376">
        <ele>80.41</ele>
        <time>2014-03-05T11:46:05Z</time>
      </trkpt>
      <trkpt lat="48.52555" lon="2.36379">
        <ele>82.33</ele>
        <time>2014-03-05T11:46:10Z</time>
      </trkpt>
      <trkpt lat="48.5256" lon="2.36379">
        <ele>83.29</ele>
        <time>2014-03-05T11:46:13Z</time>
      </trkpt>
      <trkpt lat="48.52573" lon="2.36384">
        <ele>82.33</ele>
        <time>2014-03-05T11:46:22Z</time>
      </trkpt>
      <trkpt lat="48.5258" lon="2.36389">
        <ele>79.93</ele>
        <time>2014-03-05T11:46:27Z</time>
      </trkpt>
      <trkpt lat="48.52608" lon="2.36413">
        <ele>72.24</ele>
        <time>2014-03-05T11:46:45Z</time>
      </trkpt>
      <trkpt lat="48.52627" lon="2.36419">
        <ele>75.6</ele>
        <time>2014-03-05T11:46:58Z</time>
      </trkpt>
      <trkpt lat="48.52658" lon="2.36436">
        <ele>70.79</ele>
        <time>2014-03-05T11:47:14Z</time>
      </trkpt>
      <trkpt lat="48.52663" lon="2.36441">
        <ele>67.43</ele>
        <time>2014-03-05T11:47:18Z</time>
      </trkpt>
      <trkpt lat="48.52671" lon="2.36445">
        <ele>67.43</ele>
        <time>2014-03-05T11:47:22Z</time>
      </trkpt>
      <trkpt lat="48.52676" lon="2.36448">
        <ele>67.91</ele>
        <time>2014-03-05T11:47:25Z</time>
      </trkpt>
      <trkpt lat="48.52692" lon="2.3646">
        <ele>72.72</ele>
        <time>2014-03-05T11:47:40Z</time>
      </trkpt>
      <trkpt lat="48.52696" lon="2.36464">
        <ele>73.68</ele>
        <time>2014-03-05T11:47:44Z</time>
      </trkpt>
      <trkpt lat="48.52704" lon="2.36473">
        <ele>74.16</ele>
        <time>2014-03-05T11:47:50Z</time>
      </trkpt>
      <trkpt lat="48.52724" lon="2.36491">
        <ele>69.83</ele>
        <time>2014-03-05T11:48:04Z</time>
      </trkpt>
      <trkpt lat="48.52744" lon="2.36514">
        <ele>66.95</ele>
        <time>2014-03-05T11:48:16Z</time>
      </trkpt>
      <trkpt lat="48.52761" lon="2.36535">
        <ele>59.74</ele>
        <time>2014-03-05T11:48:26Z</time>
      </trkpt>
      <trkpt lat="48.52781" lon="2.36554">
        <ele>57.82</ele>
        <time>2014-03-05T11:48:39Z</time>
      </trkpt>
      <trkpt lat="48.52804" lon="2.36582">
        <ele>56.37</ele>
        <time>2014-03-05T11:48:53Z</time>
      </trkpt>
      <trkpt lat="48.52825" lon="2.36603">
        <ele>55.89</ele>
        <time>2014-03-05T11:49:05Z</time>
      </trkpt>
      <trkpt lat="48.52844" lon="2.36625">
        <ele>54.45</ele>
        <time>2014-03-05T11:49:17Z</time>
      </trkpt>
      <trkpt lat="48.52848" lon="2.36629">
        <ele>53.49</ele>
        <time>2014-03-05T11:49:20Z</time>
      </trkpt>
      <trkpt lat="48.52872" lon="2.36649">
        <ele>55.89</ele>
        <time>2014-03-05T11:49:35Z</time>
      </trkpt>
      <trkpt lat="48.52891" lon="2.36664">
        <ele>57.82</ele>
        <time>2014-03-05T11:49:48Z</time>
      </trkpt>
      <trkpt lat="48.52914" lon="2.36684">
        <ele>58.78</ele>
        <time>2014-03-05T11:50:02Z</time>
      </trkpt>
      <trkpt lat="48.52922" lon="2.36692">
        <ele>59.26</ele>
        <time>2014-03-05T11:50:06Z</time>
      </trkpt>
      <trkpt lat="48.52932" lon="2.36699">
        <ele>58.78</ele>
        <time>2014-03-05T11:50:12Z</time>
      </trkpt>
      <trkpt lat="48.52954" lon="2.36723">
        <ele>58.3</ele>
        <time>2014-03-05T11:50:25Z</time>
      </trkpt>
      <trkpt lat="48.52957" lon="2.36724">
        <ele>58.78</ele>
        <time>2014-03-05T11:50:27Z</time>
      </trkpt>
      <trkpt lat="48.52986" lon="2.3676">
        <ele>59.26</ele>
        <time>2014-03-05T11:53:28Z</time>
      </trkpt>
      <trkpt lat="48.5301" lon="2.36771">
        <ele>54.93</ele>
        <time>2014-03-05T11:53:46Z</time>
      </trkpt>
      <trkpt lat="48.5303" lon="2.36783">
        <ele>55.89</ele>
        <time>2014-03-05T11:54:03Z</time>
      </trkpt>
      <trkpt lat="48.53053" lon="2.36797">
        <ele>56.37</ele>
        <time>2014-03-05T11:54:22Z</time>
      </trkpt>
      <trkpt lat="48.53075" lon="2.36815">
        <ele>55.41</ele>
        <time>2014-03-05T11:54:40Z</time>
      </trkpt>
      <trkpt lat="48.53094" lon="2.36834">
        <ele>49.65</ele>
        <time>2014-03-05T11:54:58Z</time>
      </trkpt>
      <trkpt lat="48.531" lon="2.36842">
        <ele>48.2</ele>
        <time>2014-03-05T11:55:04Z</time>
      </trkpt>
      <trkpt lat="48.53119" lon="2.36841">
        <ele>48.2</ele>
        <time>2014-03-05T11:55:19Z</time>
      </trkpt>
      <trkpt lat="48.53137" lon="2.36816">
        <ele>49.16</ele>
        <time>2014-03-05T11:55:37Z</time>
      </trkpt>
      <trkpt lat="48.53137" lon="2.36814">
        <ele>49.16</ele>
        <time>2014-03-05T11:55:38Z</time>
      </trkpt>
      <trkpt lat="48.5314" lon="2.36806">
        <ele>49.16</ele>
        <time>2014-03-05T11:55:42Z</time>
      </trkpt>
      <trkpt lat="48.5315" lon="2.36773">
        <ele>51.57</ele>
        <time>2014-03-05T11:56:00Z</time>
      </trkpt>
      <trkpt lat="48.53158" lon="2.36742">
        <ele>53.01</ele>
        <time>2014-03-05T11:56:17Z</time>
      </trkpt>
      <trkpt lat="48.53166" lon="2.36716">
        <ele>53.01</ele>
        <time>2014-03-05T11:56:35Z</time>
      </trkpt>
      <trkpt lat="48.53166" lon="2.36717">
        <ele>53.01</ele>
        <time>2014-03-05T11:56:36Z</time>
      </trkpt>
      <trkpt lat="48.53162" lon="2.36746">
        <ele>55.41</ele>
        <time>2014-03-05T11:56:54Z</time>
      </trkpt>
      <trkpt lat="48.53162" lon="2.36759">
        <ele>53.97</ele>
        <time>2014-03-05T11:57:08Z</time>
      </trkpt>
      <trkpt lat="48.53166" lon="2.36762">
        <ele>52.53</ele>
        <time>2014-03-05T11:57:19Z</time>
      </trkpt>
      <trkpt lat="48.53166" lon="2.36763">
        <ele>49.16</ele>
        <time>2014-03-05T11:57:40Z</time>
      </trkpt>
      <trkpt lat="48.53165" lon="2.36765">
        <ele>48.68</ele>
        <time>2014-03-05T11:58:13Z</time>
      </trkpt>
      <trkpt lat="48.53165" lon="2.36765">
        <ele>48.68</ele>
        <time>2014-03-05T11:58:33Z</time>
      </trkpt>
      <trkpt lat="48.53165" lon="2.36758">
        <ele>46.76</ele>
        <time>2014-03-05T11:58:48Z</time>
      </trkpt>
      <trkpt lat="48.53165" lon="2.36758">
        <ele>46.28</ele>
        <time>2014-03-05T11:59:14Z</time>
      </trkpt>
      <trkpt lat="48.53165" lon="2.36757">
        <ele>46.76</ele>
        <time>2014-03-05T11:59:45Z</time>
      </trkpt>
      <trkpt lat="48.53164" lon="2.36758">
        <ele>46.76</ele>
        <time>2014-03-05T12:00:06Z</time>
      </trkpt>
      <trkpt lat="48.53165" lon="2.36758">
        <ele>46.76</ele>
        <time>2014-03-05T12:00:28Z</time>
      </trkpt>
      <trkpt lat="48.53164" lon="2.36758">
        <ele>46.28</ele>
        <time>2014-03-05T12:00:50Z</time>
      </trkpt>
      <trkpt lat="48.53164" lon="2.36758">
        <ele>45.32</ele>
        <time>2014-03-05T12:01:11Z</time>
      </trkpt>
      <trkpt lat="48.53164" lon="2.36757">
        <ele>45.32</ele>
        <time>2014-03-05T12:01:34Z</time>
      </trkpt>
      <trkpt lat="48.53164" lon="2.36757">
        <ele>45.32</ele>
        <time>2014-03-05T12:01:57Z</time>
      </trkpt>
      <trkpt lat="48.53166" lon="2.3676">
        <ele>44.84</ele>
        <time>2014-03-05T12:02:15Z</time>
      </trkpt>
      <trkpt lat="48.53166" lon="2.3676">
        <ele>44.84</ele>
        <time>2014-03-05T12:02:32Z</time>
      </trkpt>
      <trkpt lat="48.53166" lon="2.3676">
        <ele>44.84</ele>
        <time>2014-03-05T12:02:48Z</time>
      </trkpt>
      <trkpt lat="48.53166" lon="2.36761">
        <ele>45.8</ele>
        <time>2014-03-05T12:03:02Z</time>
      </trkpt>
      <trkpt lat="48.53166" lon="2.36762">
        <ele>45.8</ele>
        <time>2014-03-05T12:03:35Z</time>
      </trkpt>
      <trkpt lat="48.53166" lon="2.36763">
        <ele>45.8</ele>
        <time>2014-03-05T12:04:03Z</time>
      </trkpt>
      <trkpt lat="48.53166" lon="2.36763">
        <ele>45.8</ele>
        <time>2014-03-05T12:04:39Z</time>
      </trkpt>
      <trkpt lat="48.53167" lon="2.36764">
        <ele>45.32</ele>
        <time>2014-03-05T12:05:12Z</time>
      </trkpt>
      <trkpt lat="48.53167" lon="2.36765">
        <ele>45.32</ele>
        <time>2014-03-05T12:05:49Z</time>
      </trkpt>
      <trkpt lat="48.53167" lon="2.36765">
        <ele>45.8</ele>
        <time>2014-03-05T12:06:24Z</time>
      </trkpt>
      <trkpt lat="48.53168" lon="2.36765">
        <ele>45.8</ele>
        <time>2014-03-05T12:06:57Z</time>
      </trkpt>
      <trkpt lat="48.53167" lon="2.36764">
        <ele>45.8</ele>
        <time>2014-03-05T12:07:14Z</time>
      </trkpt>
      <trkpt lat="48.53166" lon="2.36762">
        <ele>46.28</ele>
        <time>2014-03-05T12:07:37Z</time>
      </trkpt>
      <trkpt lat="48.53165" lon="2.36761">
        <ele>45.8</ele>
        <time>2014-03-05T12:07:53Z</time>
      </trkpt>
      <trkpt lat="48.53165" lon="2.36761">
        <ele>44.84</ele>
        <time>2014-03-05T12:08:09Z</time>
      </trkpt>
      <trkpt lat="48.53164" lon="2.36762">
        <ele>43.88</ele>
        <time>2014-03-05T12:08:24Z</time>
      </trkpt>
      <trkpt lat="48.53164" lon="2.36761">
        <ele>43.88</ele>
        <time>2014-03-05T12:08:37Z</time>
      </trkpt>
      <trkpt lat="48.53165" lon="2.36761">
        <ele>43.88</ele>
        <time>2014-03-05T12:08:50Z</time>
      </trkpt>
      <trkpt lat="48.53165" lon="2.3676">
        <ele>43.4</ele>
        <time>2014-03-05T12:09:15Z</time>
      </trkpt>
      <trkpt lat="48.53165" lon="2.36761">
        <ele>42.92</ele>
        <time>2014-03-05T12:09:40Z</time>
      </trkpt>
      <trkpt lat="48.53165" lon="2.36759">
        <ele>41.95</ele>
        <time>2014-03-05T12:09:55Z</time>
      </trkpt>
      <trkpt lat="48.53165" lon="2.36759">
        <ele>43.4</ele>
        <time>2014-03-05T12:10:09Z</time>
      </trkpt>
      <trkpt lat="48.53166" lon="2.36759">
        <ele>43.4</ele>
        <time>2014-03-05T12:10:27Z</time>
      </trkpt>
      <trkpt lat="48.53166" lon="2.36759">
        <ele>43.4</ele>
        <time>2014-03-05T12:10:46Z</time>
      </trkpt>
      <trkpt lat="48.53166" lon="2.36758">
        <ele>42.92</ele>
        <time>2014-03-05T12:11:04Z</time>
      </trkpt>
      <trkpt lat="48.53167" lon="2.36759">
        <ele>42.92</ele>
        <time>2014-03-05T12:11:18Z</time>
      </trkpt>
      <trkpt lat="48.53167" lon="2.3676">
        <ele>43.88</ele>
        <time>2014-03-05T12:11:39Z</time>
      </trkpt>
      <trkpt lat="48.53167" lon="2.3676">
        <ele>43.88</ele>
        <time>2014-03-05T12:12:14Z</time>
      </trkpt>
      <trkpt lat="48.53166" lon="2.36759">
        <ele>45.32</ele>
        <time>2014-03-05T12:12:39Z</time>
      </trkpt>
      <trkpt lat="48.53165" lon="2.36759">
        <ele>46.28</ele>
        <time>2014-03-05T12:12:59Z</time>
      </trkpt>
      <trkpt lat="48.53166" lon="2.36759">
        <ele>45.8</ele>
        <time>2014-03-05T12:13:28Z</time>
      </trkpt>
      <trkpt lat="48.53165" lon="2.3676">
        <ele>45.8</ele>
        <time>2014-03-05T12:13:56Z</time>
      </trkpt>
      <trkpt lat="48.53165" lon="2.36761">
        <ele>45.32</ele>
        <time>2014-03-05T12:14:20Z</time>
      </trkpt>
      <trkpt lat="48.53165" lon="2.36763">
        <ele>45.32</ele>
        <time>2014-03-05T12:14:46Z</time>
      </trkpt>
      <trkpt lat="48.53165" lon="2.36763">
        <ele>45.32</ele>
        <time>2014-03-05T12:15:15Z</time>
      </trkpt>
      <trkpt lat="48.53164" lon="2.36763">
        <ele>45.32</ele>
        <time>2014-03-05T12:15:37Z</time>
      </trkpt>
      <trkpt lat="48.53164" lon="2.36763">
        <ele>45.8</ele>
        <time>2014-03-05T12:16:11Z</time>
      </trkpt>
      <trkpt lat="48.53165" lon="2.36763">
        <ele>46.76</ele>
        <time>2014-03-05T12:16:45Z</time>
      </trkpt>
      <trkpt lat="48.53165" lon="2.36762">
        <ele>46.76</ele>
        <time>2014-03-05T12:17:15Z</time>
      </trkpt>
      <trkpt lat="48.53165" lon="2.36761">
        <ele>46.76</ele>
        <time>2014-03-05T12:17:40Z</time>
      </trkpt>
      <trkpt lat="48.53165" lon="2.3676">
        <ele>46.76</ele>
        <time>2014-03-05T12:18:03Z</time>
      </trkpt>
      <trkpt lat="48.53166" lon="2.36759">
        <ele>46.76</ele>
        <time>2014-03-05T12:18:26Z</time>
      </trkpt>
      <trkpt lat="48.53166" lon="2.36759">
        <ele>47.24</ele>
        <time>2014-03-05T12:18:57Z</time>
      </trkpt>
      <trkpt lat="48.53167" lon="2.36759">
        <ele>47.24</ele>
        <time>2014-03-05T12:19:19Z</time>
      </trkpt>
      <trkpt lat="48.53167" lon="2.3676">
        <ele>45.8</ele>
        <time>2014-03-05T12:19:37Z</time>
      </trkpt>
      <trkpt lat="48.53166" lon="2.36761">
        <ele>46.28</ele>
        <time>2014-03-05T12:19:53Z</time>
      </trkpt>
      <trkpt lat="48.53166" lon="2.36761">
        <ele>46.76</ele>
        <time>2014-03-05T12:20:17Z</time>
      </trkpt>
      <trkpt lat="48.53166" lon="2.3676">
        <ele>46.76</ele>
        <time>2014-03-05T12:20:37Z</time>
      </trkpt>
      <trkpt lat="48.53166" lon="2.36762">
        <ele>46.76</ele>
        <time>2014-03-05T12:20:55Z</time>
      </trkpt>
      <trkpt lat="48.53167" lon="2.36762">
        <ele>46.28</ele>
        <time>2014-03-05T12:21:12Z</time>
      </trkpt>
      <trkpt lat="48.53167" lon="2.3676">
        <ele>45.8</ele>
        <time>2014-03-05T12:21:26Z</time>
      </trkpt>
      <trkpt lat="48.53167" lon="2.3676">
        <ele>45.8</ele>
        <time>2014-03-05T12:21:43Z</time>
      </trkpt>
      <trkpt lat="48.53167" lon="2.3675">
        <ele>45.8</ele>
        <time>2014-03-05T12:21:55Z</time>
      </trkpt>
      <trkpt lat="48.53167" lon="2.36746">
        <ele>46.28</ele>
        <time>2014-03-05T12:21:58Z</time>
      </trkpt>
      <trkpt lat="48.53173" lon="2.3673">
        <ele>48.68</ele>
        <time>2014-03-05T12:22:12Z</time>
      </trkpt>
      <trkpt lat="48.53179" lon="2.36712">
        <ele>49.65</ele>
        <time>2014-03-05T12:22:25Z</time>
      </trkpt>
      <trkpt lat="48.53176" lon="2.36707">
        <ele>50.13</ele>
        <time>2014-03-05T12:22:40Z</time>
      </trkpt>
      <trkpt lat="48.53169" lon="2.36707">
        <ele>47.72</ele>
        <time>2014-03-05T12:22:53Z</time>
      </trkpt>
      <trkpt lat="48.53157" lon="2.36725">
        <ele>48.2</ele>
        <time>2014-03-05T12:23:07Z</time>
      </trkpt>
      <trkpt lat="48.53147" lon="2.36747">
        <ele>50.13</ele>
        <time>2014-03-05T12:23:24Z</time>
      </trkpt>
      <trkpt lat="48.53142" lon="2.36756">
        <ele>51.09</ele>
        <time>2014-03-05T12:23:31Z</time>
      </trkpt>
      <trkpt lat="48.53135" lon="2.36787">
        <ele>53.49</ele>
        <time>2014-03-05T12:23:51Z</time>
      </trkpt>
      <trkpt lat="48.53128" lon="2.36808">
        <ele>56.86</ele>
        <time>2014-03-05T12:24:06Z</time>
      </trkpt>
      <trkpt lat="48.53127" lon="2.36815">
        <ele>58.3</ele>
        <time>2014-03-05T12:24:11Z</time>
      </trkpt>
      <trkpt lat="48.53119" lon="2.36831">
        <ele>60.7</ele>
        <time>2014-03-05T12:24:23Z</time>
      </trkpt>
      <trkpt lat="48.53121" lon="2.36839">
        <ele>60.7</ele>
        <time>2014-03-05T12:24:28Z</time>
      </trkpt>
      <trkpt lat="48.53127" lon="2.36848">
        <ele>60.7</ele>
        <time>2014-03-05T12:24:34Z</time>
      </trkpt>
      <trkpt lat="48.53138" lon="2.3687">
        <ele>56.37</ele>
        <time>2014-03-05T12:24:46Z</time>
      </trkpt>
      <trkpt lat="48.53154" lon="2.36898">
        <ele>50.61</ele>
        <time>2014-03-05T12:25:01Z</time>
      </trkpt>
      <trkpt lat="48.53154" lon="2.36899">
        <ele>50.13</ele>
        <time>2014-03-05T12:25:02Z</time>
      </trkpt>
      <trkpt lat="48.53163" lon="2.36928">
        <ele>46.76</ele>
        <time>2014-03-05T12:25:17Z</time>
      </trkpt>
      <trkpt lat="48.53174" lon="2.36945">
        <ele>45.32</ele>
        <time>2014-03-05T12:25:31Z</time>
      </trkpt>
      <trkpt lat="48.53188" lon="2.36968">
        <ele>43.4</ele>
        <time>2014-03-05T12:25:48Z</time>
      </trkpt>
      <trkpt lat="48.5319" lon="2.36971">
        <ele>42.92</ele>
        <time>2014-03-05T12:25:50Z</time>
      </trkpt>
      <trkpt lat="48.532" lon="2.36988">
        <ele>41.95</ele>
        <time>2014-03-05T12:26:03Z</time>
      </trkpt>
      <trkpt lat="48.53206" lon="2.37005">
        <ele>41.47</ele>
        <time>2014-03-05T12:26:13Z</time>
      </trkpt>
      <trkpt lat="48.53211" lon="2.37016">
        <ele>41.47</ele>
        <time>2014-03-05T12:26:21Z</time>
      </trkpt>
      <trkpt lat="48.53214" lon="2.3702">
        <ele>40.99</ele>
        <time>2014-03-05T12:26:25Z</time>
      </trkpt>
      <trkpt lat="48.53221" lon="2.37028">
        <ele>40.51</ele>
        <time>2014-03-05T12:26:33Z</time>
      </trkpt>
      <trkpt lat="48.53223" lon="2.37034">
        <ele>40.03</ele>
        <time>2014-03-05T12:26:37Z</time>
      </trkpt>
      <trkpt lat="48.53226" lon="2.3704">
        <ele>39.55</ele>
        <time>2014-03-05T12:26:41Z</time>
      </trkpt>
      <trkpt lat="48.53232" lon="2.37043">
        <ele>38.59</ele>
        <time>2014-03-05T12:26:46Z</time>
      </trkpt>
      <trkpt lat="48.53237" lon="2.37043">
        <ele>40.03</ele>
        <time>2014-03-05T12:26:51Z</time>
      </trkpt>
      <trkpt lat="48.53241" lon="2.37047">
        <ele>42.44</ele>
        <time>2014-03-05T12:26:55Z</time>
      </trkpt>
      <trkpt lat="48.53248" lon="2.37078">
        <ele>45.8</ele>
        <time>2014-03-05T12:27:12Z</time>
      </trkpt>
      <trkpt lat="48.5325" lon="2.37087">
        <ele>47.24</ele>
        <time>2014-03-05T12:27:18Z</time>
      </trkpt>
      <trkpt lat="48.53259" lon="2.37107">
        <ele>45.32</ele>
        <time>2014-03-05T12:27:34Z</time>
      </trkpt>
      <trkpt lat="48.53265" lon="2.37121">
        <ele>47.72</ele>
        <time>2014-03-05T12:27:49Z</time>
      </trkpt>
      <trkpt lat="48.53265" lon="2.37128">
        <ele>49.16</ele>
        <time>2014-03-05T12:27:54Z</time>
      </trkpt>
      <trkpt lat="48.53269" lon="2.37141">
        <ele>49.16</ele>
        <time>2014-03-05T12:28:04Z</time>
      </trkpt>
      <trkpt lat="48.53265" lon="2.37154">
        <ele>51.09</ele>
        <time>2014-03-05T12:28:17Z</time>
      </trkpt>
      <trkpt lat="48.53262" lon="2.37162">
        <ele>52.53</ele>
        <time>2014-03-05T12:28:31Z</time>
      </trkpt>
      <trkpt lat="48.53256" lon="2.37174">
        <ele>55.89</ele>
        <time>2014-03-05T12:28:40Z</time>
      </trkpt>
      <trkpt lat="48.53239" lon="2.37172">
        <ele>56.37</ele>
        <time>2014-03-05T12:28:53Z</time>
      </trkpt>
      <trkpt lat="48.5322" lon="2.37175">
        <ele>55.41</ele>
        <time>2014-03-05T12:29:10Z</time>
      </trkpt>
      <trkpt lat="48.53194" lon="2.37115">
        <ele>55.89</ele>
        <time>2014-03-05T12:50:25Z</time>
      </trkpt>
      <trkpt lat="48.532" lon="2.37098">
        <ele>45.32</ele>
        <time>2014-03-05T12:50:36Z</time>
      </trkpt>
      <trkpt lat="48.53203" lon="2.37078">
        <ele>41.95</ele>
        <time>2014-03-05T12:51:14Z</time>
      </trkpt>
      <trkpt lat="48.53199" lon="2.37082">
        <ele>43.88</ele>
        <time>2014-03-05T12:51:36Z</time>
      </trkpt>
      <trkpt lat="48.53197" lon="2.37084">
        <ele>38.59</ele>
        <time>2014-03-05T12:51:57Z</time>
      </trkpt>
      <trkpt lat="48.53198" lon="2.37091">
        <ele>44.84</ele>
        <time>2014-03-05T12:52:14Z</time>
      </trkpt>
      <trkpt lat="48.53201" lon="2.37093">
        <ele>47.72</ele>
        <time>2014-03-05T12:52:34Z</time>
      </trkpt>
      <trkpt lat="48.53202" lon="2.37089">
        <ele>45.8</ele>
        <time>2014-03-05T12:52:49Z</time>
      </trkpt>
      <trkpt lat="48.53202" lon="2.37089">
        <ele>46.76</ele>
        <time>2014-03-05T12:53:09Z</time>
      </trkpt>
      <trkpt lat="48.53201" lon="2.37096">
        <ele>47.24</ele>
        <time>2014-03-05T12:53:34Z</time>
      </trkpt>
      <trkpt lat="48.53206" lon="2.37108">
        <ele>47.72</ele>
        <time>2014-03-05T12:53:45Z</time>
      </trkpt>
    </trkseg>
  </trk>
</gpx>